Time,TemperatureF,DewpointF,PressureIn,WindDirection,WindDirectionDegrees,WindSpeedMPH,WindSpeedGustMPH,Humidity,HourlyPrecipIn,Conditions,Clouds,dailyrainin,SoftwareType,DateUTC
2013-02-05 00:00:00,68.4,63.7,29.98,ENE,57,13.0,-999.0,85,0.00,,,0.00,PyWeather,2013-02-05 10:00:00,
2013-02-05 00:01:00,68.5,63.8,29.98,NE,34,13.0,-999.0,85,0.00,,,0.00,PyWeather,2013-02-05 10:01:00,
2013-02-05 00:03:00,68.6,63.6,29.98,NE,36,13.0,-999.0,84,0.00,,,0.00,PyWeather,2013-02-05 10:03:00,
2013-02-05 00:04:00,68.5,63.8,29.97,NNE,27,12.0,21.0,85,0.00,,,0.00,PyWeather,2013-02-05 10:04:00,
2013-02-05 00:05:00,68.6,63.6,29.98,NE,42,13.0,-999.0,84,0.00,,,0.00,PyWeather,2013-02-05 10:05:00,
2013-02-05 00:06:00,68.7,63.7,29.98,NE,47,12.0,-999.0,84,0.00,,,0.00,PyWeather,2013-02-05 10:06:00,
2013-02-05 00:07:00,68.8,63.5,29.98,NE,55,12.0,-999.0,83,0.00,,,0.00,PyWeather,2013-02-05 10:07:00,
2013-02-05 00:08:00,68.8,63.5,29.98,NE,49,12.0,-999.0,83,0.00,,,0.00,PyWeather,2013-02-05 10:08:00,
2013-02-05 00:09:00,68.5,63.8,29.98,NE,39,13.0,-999.0,85,0.00,,,0.00,PyWeather,2013-02-05 10:09:00,
2013-02-05 00:10:00,69.0,63.7,29.98,ENE,59,11.0,-999.0,83,0.00,,,0.00,PyWeather,2013-02-05 10:10:00,
2013-02-05 00:11:00,69.0,63.3,29.98,NE,36,11.0,-999.0,82,0.00,,,0.00,PyWeather,2013-02-05 10:11:00,
2013-02-05 00:12:00,69.0,63.3,29.98,NE,36,11.0,-999.0,82,0.00,,,0.00,PyWeather,2013-02-05 10:12:00,
2013-02-05 00:13:00,69.0,63.3,29.98,NE,55,11.0,-999.0,82,0.00,,,0.00,PyWeather,2013-02-05 10:13:00,
2013-02-05 00:14:00,69.0,63.3,29.98,NE,42,10.0,-999.0,82,0.00,,,0.00,PyWeather,2013-02-05 10:14:00,
2013-02-05 00:15:00,68.4,63.7,29.98,NE,36,13.0,-999.0,85,0.00,,,0.00,PyWeather,2013-02-05 10:15:00,
2013-02-05 00:16:00,69.1,63.4,29.98,NE,51,10.0,17.0,82,0.00,,,0.00,PyWeather,2013-02-05 10:16:00,
2013-02-05 00:17:00,69.1,63.1,29.98,NE,40,10.0,17.0,81,0.00,,,0.00,PyWeather,2013-02-05 10:17:00,
2013-02-05 00:18:00,69.1,63.1,29.98,NE,44,10.0,17.0,81,0.00,,,0.00,PyWeather,2013-02-05 10:18:00,
2013-02-05 00:19:00,69.1,63.1,29.98,NNE,33,10.0,17.0,81,0.00,,,0.00,PyWeather,2013-02-05 10:19:00,
2013-02-05 00:20:00,68.7,63.7,29.98,NE,53,12.0,-999.0,84,0.00,,,0.00,PyWeather,2013-02-05 10:20:00,
2013-02-05 00:21:00,69.1,63.1,29.98,NNE,30,10.0,17.0,81,0.00,,,0.00,PyWeather,2013-02-05 10:21:00,
2013-02-05 00:22:00,69.1,63.1,29.98,NNE,30,10.0,17.0,81,0.00,,,0.00,PyWeather,2013-02-05 10:22:00,
2013-02-05 00:23:00,69.1,63.1,29.98,NE,44,10.0,17.0,81,0.00,,,0.00,PyWeather,2013-02-05 10:23:00,
2013-02-05 00:24:00,69.1,63.1,29.98,NE,42,10.0,17.0,81,0.00,,,0.00,PyWeather,2013-02-05 10:24:00,
2013-02-05 00:25:00,69.0,63.3,29.98,NE,40,11.0,-999.0,82,0.00,,,0.00,PyWeather,2013-02-05 10:25:00,
2013-02-05 00:26:00,69.1,63.1,29.98,NE,34,11.0,18.0,81,0.00,,,0.00,PyWeather,2013-02-05 10:26:00,
2013-02-05 00:27:00,69.1,63.1,29.98,NE,49,11.0,18.0,81,0.00,,,0.00,PyWeather,2013-02-05 10:27:00,
2013-02-05 00:28:00,69.1,62.7,29.98,NE,39,12.0,18.0,80,0.00,,,0.00,PyWeather,2013-02-05 10:28:00,
2013-02-05 00:29:00,69.1,62.7,29.98,NE,47,12.0,18.0,80,0.00,,,0.00,PyWeather,2013-02-05 10:29:00,
2013-02-05 00:30:00,69.1,62.7,29.98,NNE,31,12.0,18.0,80,0.00,,,0.00,PyWeather,2013-02-05 10:30:00,
2013-02-05 00:31:00,69.1,63.1,29.98,NNE,26,10.0,17.0,81,0.00,,,0.00,PyWeather,2013-02-05 10:31:00,
2013-02-05 00:32:00,69.1,63.1,29.98,ENE,59,12.0,18.0,81,0.00,,,0.00,PyWeather,2013-02-05 10:32:00,
2013-02-05 00:33:00,69.1,63.1,29.98,NE,40,12.0,18.0,81,0.00,,,0.00,PyWeather,2013-02-05 10:33:00,
2013-02-05 00:34:00,69.0,63.0,29.98,NE,42,12.0,-999.0,81,0.00,,,0.00,PyWeather,2013-02-05 10:34:00,
2013-02-05 00:35:00,69.0,63.0,29.97,NE,47,11.0,-999.0,81,0.00,,,0.00,PyWeather,2013-02-05 10:35:00,
2013-02-05 00:36:00,69.1,63.1,29.98,NNE,30,10.0,17.0,81,0.00,,,0.00,PyWeather,2013-02-05 10:36:00,
2013-02-05 00:37:00,69.0,63.0,29.97,NE,39,11.0,-999.0,81,0.00,,,0.00,PyWeather,2013-02-05 10:37:00,
2013-02-05 00:39:00,69.0,63.0,29.98,NE,36,11.0,-999.0,81,0.00,,,0.00,PyWeather,2013-02-05 10:39:00,
2013-02-05 00:40:00,69.0,63.0,29.98,NE,40,11.0,-999.0,81,0.00,,,0.00,PyWeather,2013-02-05 10:40:00,
2013-02-05 00:41:00,69.1,63.1,29.98,NNE,30,11.0,18.0,81,0.00,,,0.00,PyWeather,2013-02-05 10:41:00,
2013-02-05 00:42:00,69.0,63.0,29.97,NNE,22,11.0,-999.0,81,0.00,,,0.00,PyWeather,2013-02-05 10:42:00,
2013-02-05 00:43:00,69.0,63.0,29.97,NE,42,11.0,-999.0,81,0.00,,,0.00,PyWeather,2013-02-05 10:43:00,
2013-02-05 00:44:00,69.1,63.1,29.97,NE,43,11.0,-999.0,81,0.00,,,0.00,PyWeather,2013-02-05 10:44:00,
2013-02-05 00:45:00,69.1,63.1,29.97,NE,46,12.0,-999.0,81,0.00,,,0.00,PyWeather,2013-02-05 10:45:00,
2013-02-05 00:46:00,69.1,62.7,29.98,NE,51,12.0,18.0,80,0.00,,,0.00,PyWeather,2013-02-05 10:46:00,
2013-02-05 00:48:00,69.2,63.2,29.98,NE,42,13.0,-999.0,81,0.00,,,0.00,PyWeather,2013-02-05 10:48:00,
2013-02-05 00:49:00,69.2,63.2,29.97,NE,47,13.0,-999.0,81,0.00,,,0.00,PyWeather,2013-02-05 10:49:00,
2013-02-05 00:50:00,69.3,63.3,29.97,NNE,30,14.0,-999.0,81,0.00,,,0.00,PyWeather,2013-02-05 10:50:00,
2013-02-05 00:51:00,69.0,63.0,29.97,NE,36,11.0,-999.0,81,0.00,,,0.00,PyWeather,2013-02-05 10:51:00,
2013-02-05 00:52:00,69.3,63.3,29.97,NE,40,14.0,-999.0,81,0.00,,,0.00,PyWeather,2013-02-05 10:52:00,
2013-02-05 00:53:00,69.4,63.4,29.98,NE,40,15.0,-999.0,81,0.00,,,0.00,PyWeather,2013-02-05 10:53:00,
2013-02-05 00:55:00,69.4,63.4,29.98,NE,39,16.0,23.0,81,0.00,,,0.00,PyWeather,2013-02-05 10:55:00,
2013-02-05 00:56:00,69.0,63.0,29.97,NNE,31,11.0,-999.0,81,0.00,,,0.00,PyWeather,2013-02-05 10:56:00,
2013-02-05 00:58:00,69.5,63.5,29.98,NE,46,16.0,23.0,81,0.00,,,0.00,PyWeather,2013-02-05 10:58:00,
2013-02-05 00:59:00,69.5,63.5,29.97,NNE,33,16.0,23.0,81,0.00,,,0.00,PyWeather,2013-02-05 10:59:00,
2013-02-05 01:00:00,69.5,63.5,29.98,NE,43,16.0,23.0,81,0.00,,,0.00,PyWeather,2013-02-05 11:00:00,
2013-02-05 01:01:00,69.2,63.2,29.97,NNE,30,13.0,-999.0,81,0.00,,,0.00,PyWeather,2013-02-05 11:01:00,
2013-02-05 01:02:00,69.5,63.5,29.98,NE,46,17.0,23.0,81,0.00,,,0.00,PyWeather,2013-02-05 11:02:00,
2013-02-05 01:03:00,69.5,63.5,29.98,NE,42,17.0,23.0,81,0.00,,,0.00,PyWeather,2013-02-05 11:03:00,
2013-02-05 01:04:00,69.5,63.5,29.98,NNE,30,18.0,27.0,81,0.00,,,0.00,PyWeather,2013-02-05 11:04:00,
2013-02-05 01:06:00,69.3,63.3,29.97,NE,34,14.0,-999.0,81,0.00,,,0.00,PyWeather,2013-02-05 11:06:00,
2013-02-05 01:08:00,69.2,63.5,29.98,NNE,18,18.0,27.0,82,0.00,,,0.00,PyWeather,2013-02-05 11:08:00,
2013-02-05 01:09:00,69.2,63.5,29.98,NE,36,18.0,27.0,82,0.00,,,0.00,PyWeather,2013-02-05 11:09:00,
2013-02-05 01:11:00,69.0,63.3,29.98,NNE,12,17.0,27.0,82,0.00,,,0.00,PyWeather,2013-02-05 11:11:00,
2013-02-05 01:12:00,69.5,63.5,29.98,NNE,20,16.0,23.0,81,0.00,,,0.00,PyWeather,2013-02-05 11:12:00,
2013-02-05 01:13:00,68.9,63.6,29.98,NNE,13,16.0,27.0,83,0.00,,,0.00,PyWeather,2013-02-05 11:13:00,
2013-02-05 01:14:00,68.9,63.6,29.98,North,11,15.0,24.0,83,0.00,,,0.00,PyWeather,2013-02-05 11:14:00,
2013-02-05 01:15:00,68.9,63.6,29.98,NNE,21,15.0,24.0,83,0.00,,,0.00,PyWeather,2013-02-05 11:15:00,
2013-02-05 01:17:00,69.5,63.5,29.98,NE,42,17.0,23.0,81,0.00,,,0.00,PyWeather,2013-02-05 11:17:00,
2013-02-05 01:23:00,69.2,63.5,29.98,NNE,24,18.0,27.0,82,0.00,,,0.00,PyWeather,2013-02-05 11:23:00,
2013-02-05 01:28:00,68.9,63.6,29.98,NNE,31,16.0,27.0,83,0.00,,,0.00,PyWeather,2013-02-05 11:28:00,
2013-02-05 01:31:00,67.9,63.2,29.98,North,10,14.0,24.0,85,0.00,,,0.00,PyWeather,2013-02-05 11:31:00,
2013-02-05 01:33:00,68.9,63.6,29.98,NNE,21,14.0,24.0,83,0.00,,,0.00,PyWeather,2013-02-05 11:33:00,
2013-02-05 01:34:00,67.7,63.4,29.98,NNE,16,12.0,20.0,86,0.00,,,0.00,PyWeather,2013-02-05 11:34:00,
2013-02-05 01:35:00,67.6,63.3,29.98,NNE,15,12.0,20.0,86,0.00,,,0.00,PyWeather,2013-02-05 11:35:00,
2013-02-05 01:36:00,67.6,63.3,29.98,North,5,12.0,20.0,86,0.00,,,0.00,PyWeather,2013-02-05 11:36:00,
2013-02-05 01:37:00,67.5,63.2,29.97,North,5,11.0,20.0,86,0.00,,,0.00,PyWeather,2013-02-05 11:37:00,
2013-02-05 01:38:00,68.5,63.5,29.98,NE,35,15.0,24.0,84,0.00,,,0.00,PyWeather,2013-02-05 11:38:00,
2013-02-05 01:40:00,67.4,63.4,29.97,North,355,11.0,20.0,87,0.00,,,0.00,PyWeather,2013-02-05 11:40:00,
2013-02-05 01:41:00,67.4,63.4,29.97,NNE,15,11.0,20.0,87,0.00,,,0.00,PyWeather,2013-02-05 11:41:00,
2013-02-05 01:42:00,67.4,63.4,29.97,NNE,24,11.0,20.0,87,0.00,,,0.00,PyWeather,2013-02-05 11:42:00,
2013-02-05 01:43:00,68.1,63.4,29.98,NE,44,14.0,24.0,85,0.00,,,0.00,PyWeather,2013-02-05 11:43:00,
2013-02-05 01:44:00,67.4,63.4,29.97,NE,36,12.0,19.0,87,0.00,,,0.00,PyWeather,2013-02-05 11:44:00,
2013-02-05 01:46:00,67.3,63.0,29.97,NNE,30,14.0,19.0,86,0.00,,,0.00,PyWeather,2013-02-05 11:46:00,
2013-02-05 01:47:00,67.4,63.1,29.97,NNE,29,15.0,19.0,86,0.00,,,0.00,PyWeather,2013-02-05 11:47:00,
2013-02-05 01:48:00,67.7,63.4,29.98,NNE,19,12.0,24.0,86,0.00,,,0.00,PyWeather,2013-02-05 11:48:00,
2013-02-05 01:49:00,67.7,63.0,29.98,NE,46,17.0,19.0,85,0.00,,,0.00,PyWeather,2013-02-05 11:49:00,
2013-02-05 01:54:00,67.4,63.4,29.97,North,10,11.0,20.0,87,0.00,,,0.00,PyWeather,2013-02-05 11:54:00,
2013-02-05 01:59:00,67.4,63.4,29.97,NNE,32,12.0,19.0,87,0.00,,,0.00,PyWeather,2013-02-05 11:59:00,
2013-02-05 02:04:00,67.7,63.0,29.98,ENE,61,17.0,19.0,85,0.00,,,0.00,PyWeather,2013-02-05 12:04:00,
2013-02-05 02:09:00,67.6,62.6,29.98,NE,44,17.0,29.0,84,0.00,,,0.00,PyWeather,2013-02-05 12:09:00,
2013-02-05 02:15:00,67.6,62.6,29.98,NE,42,12.0,29.0,84,0.00,,,0.00,PyWeather,2013-02-05 12:15:00,
2013-02-05 02:20:00,67.6,62.3,29.98,NE,46,12.0,19.0,83,0.00,,,0.00,PyWeather,2013-02-05 12:20:00,
2013-02-05 02:22:00,67.2,62.2,29.97,NNE,24,11.0,19.0,84,0.00,,,0.00,PyWeather,2013-02-05 12:22:00,
2013-02-05 02:23:00,67.2,62.2,29.97,NE,34,12.0,19.0,84,0.00,,,0.00,PyWeather,2013-02-05 12:23:00,
2013-02-05 02:24:00,67.2,62.2,29.97,NNE,21,12.0,19.0,84,0.00,,,0.00,PyWeather,2013-02-05 12:24:00,
2013-02-05 02:25:00,67.6,62.3,29.98,NNE,23,13.0,19.0,83,0.00,,,0.00,PyWeather,2013-02-05 12:25:00,
2013-02-05 02:27:00,67.2,62.2,29.97,North,9,12.0,19.0,84,0.00,,,0.00,PyWeather,2013-02-05 12:27:00,
2013-02-05 02:29:00,67.2,62.2,29.97,NNE,24,12.0,19.0,84,0.00,,,0.00,PyWeather,2013-02-05 12:29:00,
2013-02-05 02:30:00,67.4,62.1,29.97,NNE,15,11.0,19.0,83,0.00,,,0.00,PyWeather,2013-02-05 12:30:00,
2013-02-05 02:31:00,67.3,62.3,29.97,North,11,12.0,19.0,84,0.00,,,0.00,PyWeather,2013-02-05 12:31:00,
2013-02-05 02:32:00,67.2,62.2,29.97,NNE,32,12.0,19.0,84,0.00,,,0.00,PyWeather,2013-02-05 12:32:00,
2013-02-05 02:33:00,67.3,62.3,29.97,NE,38,12.0,19.0,84,0.00,,,0.00,PyWeather,2013-02-05 12:33:00,
2013-02-05 02:34:00,67.3,62.3,29.97,NNE,30,12.0,19.0,84,0.00,,,0.00,PyWeather,2013-02-05 12:34:00,
2013-02-05 02:35:00,67.3,62.3,29.97,NNE,32,13.0,19.0,84,0.00,,,0.00,PyWeather,2013-02-05 12:35:00,
2013-02-05 02:36:00,67.2,62.2,29.97,North,9,11.0,19.0,84,0.00,,,0.00,PyWeather,2013-02-05 12:36:00,
2013-02-05 02:37:00,67.3,62.3,29.97,NNE,24,13.0,19.0,84,0.00,,,0.00,PyWeather,2013-02-05 12:37:00,
2013-02-05 02:38:00,67.4,62.4,29.97,NNE,24,13.0,19.0,84,0.00,,,0.00,PyWeather,2013-02-05 12:38:00,
2013-02-05 02:39:00,67.4,62.4,29.97,NE,38,13.0,19.0,84,0.00,,,0.00,PyWeather,2013-02-05 12:39:00,
2013-02-05 02:40:00,67.4,62.4,29.97,NE,38,13.0,19.0,84,0.00,,,0.00,PyWeather,2013-02-05 12:40:00,
2013-02-05 02:41:00,67.3,62.3,29.97,North,11,12.0,19.0,84,0.00,,,0.00,PyWeather,2013-02-05 12:41:00,
2013-02-05 02:42:00,67.4,62.4,29.97,NNE,33,13.0,19.0,84,0.00,,,0.00,PyWeather,2013-02-05 12:42:00,
2013-02-05 02:43:00,67.4,62.4,29.97,NE,40,13.0,19.0,84,0.00,,,0.00,PyWeather,2013-02-05 12:43:00,
2013-02-05 02:44:00,67.4,62.4,29.97,NE,46,13.0,20.0,84,0.00,,,0.00,PyWeather,2013-02-05 12:44:00,
2013-02-05 02:45:00,67.3,62.3,29.97,NE,35,13.0,20.0,84,0.00,,,0.00,PyWeather,2013-02-05 12:45:00,
2013-02-05 02:46:00,67.3,62.3,29.97,North,9,12.0,19.0,84,0.00,,,0.00,PyWeather,2013-02-05 12:46:00,
2013-02-05 02:47:00,67.2,62.2,29.96,NNE,17,12.0,20.0,84,0.00,,,0.00,PyWeather,2013-02-05 12:47:00,
2013-02-05 02:48:00,67.2,62.2,29.96,NNE,18,12.0,20.0,84,0.00,,,0.00,PyWeather,2013-02-05 12:48:00,
2013-02-05 02:52:00,67.3,62.3,29.97,NE,38,13.0,19.0,84,0.00,,,0.00,PyWeather,2013-02-05 12:52:00,
2013-02-05 02:57:00,67.4,62.4,29.97,NNE,23,13.0,19.0,84,0.00,,,0.00,PyWeather,2013-02-05 12:57:00,
2013-02-05 03:02:00,67.2,62.2,29.96,North,5,12.0,20.0,84,0.00,,,0.00,PyWeather,2013-02-05 13:02:00,
2013-02-05 03:07:00,67.0,62.4,29.96,NNE,21,11.0,20.0,85,0.00,,,0.00,PyWeather,2013-02-05 13:07:00,
2013-02-05 03:12:00,67.1,62.5,29.96,NNE,30,13.0,20.0,85,0.00,,,0.00,PyWeather,2013-02-05 13:12:00,
2013-02-05 03:18:00,67.3,62.7,29.97,NE,47,14.0,20.0,85,0.00,,,0.00,PyWeather,2013-02-05 13:18:00,
2013-02-05 03:23:00,67.4,62.4,29.96,NE,34,13.0,-999.0,84,0.00,,,0.00,PyWeather,2013-02-05 13:23:00,
2013-02-05 03:24:00,67.2,62.2,29.96,NNE,16,11.0,-999.0,84,0.00,,,0.00,PyWeather,2013-02-05 13:24:00,
2013-02-05 03:26:00,67.1,62.1,29.97,NNE,26,10.0,-999.0,84,0.00,,,0.00,PyWeather,2013-02-05 13:26:00,
2013-02-05 03:27:00,67.1,62.1,29.96,North,360,10.0,-999.0,84,0.00,,,0.00,PyWeather,2013-02-05 13:27:00,
2013-02-05 03:29:00,67.4,62.4,29.96,NNE,29,13.0,-999.0,84,0.00,,,0.00,PyWeather,2013-02-05 13:29:00,
2013-02-05 03:31:00,67.0,62.4,29.96,North,355,9.0,-999.0,85,0.00,,,0.00,PyWeather,2013-02-05 13:31:00,
2013-02-05 03:32:00,67.0,62.4,29.96,North,5,9.0,-999.0,85,0.00,,,0.00,PyWeather,2013-02-05 13:32:00,
2013-02-05 03:33:00,66.8,62.2,29.96,North,9,9.0,-999.0,85,0.00,,,0.00,PyWeather,2013-02-05 13:33:00,
2013-02-05 03:34:00,67.3,62.3,29.97,NE,53,12.0,-999.0,84,0.00,,,0.00,PyWeather,2013-02-05 13:34:00,
2013-02-05 03:36:00,66.8,62.2,29.96,North,5,11.0,-999.0,85,0.00,,,0.00,PyWeather,2013-02-05 13:36:00,
2013-02-05 03:37:00,66.8,62.2,29.96,North,9,11.0,-999.0,85,0.00,,,0.00,PyWeather,2013-02-05 13:37:00,
2013-02-05 03:39:00,67.2,62.2,29.96,North,360,11.0,-999.0,84,0.00,,,0.00,PyWeather,2013-02-05 13:39:00,
2013-02-05 03:40:00,66.9,62.3,29.95,North,5,11.0,-999.0,85,0.00,,,0.00,PyWeather,2013-02-05 13:40:00,
2013-02-05 03:41:00,67.0,62.4,29.95,North,360,12.0,-999.0,85,0.00,,,0.00,PyWeather,2013-02-05 13:41:00,
2013-02-05 03:44:00,67.1,62.5,29.96,North,10,9.0,-999.0,85,0.00,,,0.00,PyWeather,2013-02-05 13:44:00,
2013-02-05 03:45:00,67.2,62.2,29.95,North,360,13.0,20.0,84,0.00,,,0.00,PyWeather,2013-02-05 13:45:00,
2013-02-05 03:48:00,67.4,62.4,29.95,NNE,30,14.0,20.0,84,0.00,,,0.00,PyWeather,2013-02-05 13:48:00,
2013-02-05 03:50:00,66.8,62.2,29.96,NNE,14,10.0,-999.0,85,0.00,,,0.00,PyWeather,2013-02-05 13:50:00,
2013-02-05 03:51:00,67.6,62.6,29.95,NNE,24,14.0,20.0,84,0.00,,,0.00,PyWeather,2013-02-05 13:51:00,
2013-02-05 03:55:00,66.9,62.3,29.95,NNE,13,11.0,-999.0,85,0.00,,,0.00,PyWeather,2013-02-05 13:55:00,
2013-02-05 04:01:00,67.3,62.3,29.95,NNE,19,13.0,20.0,84,0.00,,,0.00,PyWeather,2013-02-05 14:01:00,
2013-02-05 04:06:00,67.6,62.6,29.95,NE,34,15.0,20.0,84,0.00,,,0.00,PyWeather,2013-02-05 14:06:00,
2013-02-05 04:07:00,67.3,62.0,29.95,NNE,23,15.0,23.0,83,0.00,,,0.00,PyWeather,2013-02-05 14:07:00,
2013-02-05 04:08:00,67.3,62.0,29.95,NNE,22,15.0,23.0,83,0.00,,,0.00,PyWeather,2013-02-05 14:08:00,
2013-02-05 04:09:00,67.3,62.0,29.95,NNE,17,15.0,23.0,83,0.00,,,0.00,PyWeather,2013-02-05 14:09:00,
2013-02-05 04:10:00,67.3,62.0,29.95,North,9,14.0,23.0,83,0.00,,,0.00,PyWeather,2013-02-05 14:10:00,
2013-02-05 04:11:00,67.5,62.5,29.95,NNE,28,15.0,-999.0,84,0.00,,,0.00,PyWeather,2013-02-05 14:11:00,
2013-02-05 04:14:00,67.3,62.0,29.95,NNE,27,15.0,22.0,83,0.00,,,0.00,PyWeather,2013-02-05 14:14:00,
2013-02-05 04:15:00,67.4,62.1,29.95,NNE,14,15.0,22.0,83,0.00,,,0.00,PyWeather,2013-02-05 14:15:00,
2013-02-05 04:16:00,67.5,62.5,29.95,NE,34,16.0,-999.0,84,0.00,,,0.00,PyWeather,2013-02-05 14:16:00,
2013-02-05 04:18:00,67.5,61.9,29.95,North,5,15.0,22.0,82,0.00,,,0.00,PyWeather,2013-02-05 14:18:00,
2013-02-05 04:19:00,67.5,61.9,29.95,NNE,32,15.0,22.0,82,0.00,,,0.00,PyWeather,2013-02-05 14:19:00,
2013-02-05 04:20:00,67.5,61.9,29.95,NNE,12,16.0,22.0,82,0.00,,,0.00,PyWeather,2013-02-05 14:20:00,
2013-02-05 04:21:00,67.4,62.1,29.96,NNE,28,15.0,23.0,83,0.00,,,0.00,PyWeather,2013-02-05 14:21:00,
2013-02-05 04:22:00,67.5,61.9,29.95,NE,38,16.0,22.0,82,0.00,,,0.00,PyWeather,2013-02-05 14:22:00,
2013-02-05 04:23:00,67.5,61.9,29.95,NNE,22,16.0,22.0,82,0.00,,,0.00,PyWeather,2013-02-05 14:23:00,
2013-02-05 04:25:00,67.4,61.4,29.95,NNE,22,17.0,26.0,81,0.00,,,0.00,PyWeather,2013-02-05 14:25:00,
2013-02-05 04:26:00,67.3,62.0,29.95,NNE,28,14.0,23.0,83,0.00,,,0.00,PyWeather,2013-02-05 14:26:00,
2013-02-05 04:27:00,67.2,61.2,29.95,NE,47,17.0,26.0,81,0.00,,,0.00,PyWeather,2013-02-05 14:27:00,
2013-02-05 04:32:00,67.5,62.2,29.95,NE,38,15.0,22.0,83,0.00,,,0.00,PyWeather,2013-02-05 14:32:00,
2013-02-05 04:37:00,67.5,61.9,29.95,NE,46,16.0,22.0,82,0.00,,,0.00,PyWeather,2013-02-05 14:37:00,
2013-02-05 04:38:00,66.8,60.8,29.95,NE,50,17.0,25.0,81,0.00,,,0.00,PyWeather,2013-02-05 14:38:00,
2013-02-05 04:40:00,66.8,60.8,29.95,NNE,26,16.0,25.0,81,0.00,,,0.00,PyWeather,2013-02-05 14:40:00,
2013-02-05 04:41:00,66.8,60.8,29.95,NNE,27,16.0,25.0,81,0.00,,,0.00,PyWeather,2013-02-05 14:41:00,
2013-02-05 04:42:00,67.1,61.1,29.95,NNE,29,17.0,26.0,81,0.00,,,0.00,PyWeather,2013-02-05 14:42:00,
2013-02-05 04:43:00,66.8,60.8,29.95,NE,40,16.0,25.0,81,0.00,,,0.00,PyWeather,2013-02-05 14:43:00,
2013-02-05 04:44:00,66.8,60.8,29.95,NNE,17,16.0,25.0,81,0.00,,,0.00,PyWeather,2013-02-05 14:44:00,
2013-02-05 04:45:00,66.7,61.1,29.95,NNE,24,16.0,-999.0,82,0.00,,,0.00,PyWeather,2013-02-05 14:45:00,
2013-02-05 04:47:00,66.9,60.9,29.95,NE,49,17.0,26.0,81,0.00,,,0.00,PyWeather,2013-02-05 14:47:00,
2013-02-05 04:48:00,66.6,61.0,29.95,North,5,16.0,-999.0,82,0.00,,,0.00,PyWeather,2013-02-05 14:48:00,
2013-02-05 04:49:00,66.5,60.9,29.95,NNE,15,16.0,-999.0,82,0.00,,,0.00,PyWeather,2013-02-05 14:49:00,
2013-02-05 04:51:00,66.4,60.8,29.95,North,5,15.0,-999.0,82,0.00,,,0.00,PyWeather,2013-02-05 14:51:00,
2013-02-05 04:53:00,66.8,60.8,29.95,NE,35,17.0,25.0,81,0.00,,,0.00,PyWeather,2013-02-05 14:53:00,
2013-02-05 04:55:00,66.3,61.0,29.95,North,10,16.0,-999.0,83,0.00,,,0.00,PyWeather,2013-02-05 14:55:00,
2013-02-05 04:56:00,66.3,61.0,29.95,NNE,20,16.0,-999.0,83,0.00,,,0.00,PyWeather,2013-02-05 14:56:00,
2013-02-05 04:57:00,66.3,61.0,29.95,NNE,22,15.0,-999.0,83,0.00,,,0.00,PyWeather,2013-02-05 14:57:00,
2013-02-05 04:58:00,66.8,60.8,29.95,NE,34,16.0,25.0,81,0.00,,,0.00,PyWeather,2013-02-05 14:58:00,
2013-02-05 04:59:00,66.2,60.9,29.95,North,355,16.0,-999.0,83,0.00,,,0.00,PyWeather,2013-02-05 14:59:00,
2013-02-05 05:00:00,66.2,60.9,29.95,NNE,13,16.0,-999.0,83,0.00,,,0.00,PyWeather,2013-02-05 15:00:00,
2013-02-05 05:04:00,66.5,60.9,29.95,NNE,15,16.0,-999.0,82,0.00,,,0.00,PyWeather,2013-02-05 15:04:00,
2013-02-05 05:09:00,66.3,61.0,29.95,NNE,19,16.0,-999.0,83,0.00,,,0.00,PyWeather,2013-02-05 15:09:00,
2013-02-05 05:14:00,66.2,60.9,29.95,North,11,16.0,-999.0,83,0.00,,,0.00,PyWeather,2013-02-05 15:14:00,
2013-02-05 05:19:00,66.0,60.7,29.95,NNE,24,15.0,22.0,83,0.00,,,0.00,PyWeather,2013-02-05 15:19:00,
2013-02-05 05:20:00,65.6,61.0,29.95,NNW,346,15.0,22.0,85,0.00,,,0.00,PyWeather,2013-02-05 15:20:00,
2013-02-05 05:21:00,65.6,61.0,29.95,North,355,15.0,22.0,85,0.00,,,0.00,PyWeather,2013-02-05 15:21:00,
2013-02-05 05:22:00,65.6,61.0,29.95,NNW,346,15.0,22.0,85,0.00,,,0.00,PyWeather,2013-02-05 15:22:00,
2013-02-05 05:23:00,65.6,61.0,29.94,North,350,15.0,22.0,85,0.00,,,0.00,PyWeather,2013-02-05 15:23:00,
2013-02-05 05:24:00,65.6,61.0,29.94,NNW,345,15.0,22.0,85,0.00,,,0.00,PyWeather,2013-02-05 15:24:00,
2013-02-05 05:25:00,65.9,61.0,29.95,North,5,15.0,22.0,84,0.00,,,0.00,PyWeather,2013-02-05 15:25:00,
2013-02-05 05:26:00,65.7,61.1,29.94,NNW,333,16.0,-999.0,85,0.00,,,0.00,PyWeather,2013-02-05 15:26:00,
2013-02-05 05:27:00,65.8,61.2,29.94,NNW,348,17.0,-999.0,85,0.00,,,0.00,PyWeather,2013-02-05 15:27:00,
2013-02-05 05:28:00,65.9,61.0,29.94,NNW,345,17.0,-999.0,84,0.00,,,0.00,PyWeather,2013-02-05 15:28:00,
2013-02-05 05:30:00,65.7,60.8,29.95,North,10,15.0,22.0,84,0.00,,,0.00,PyWeather,2013-02-05 15:30:00,
2013-02-05 05:32:00,66.4,61.4,29.94,NNW,336,19.0,-999.0,84,0.00,,,0.00,PyWeather,2013-02-05 15:32:00,
2013-02-05 05:33:00,66.6,61.3,29.93,North,360,20.0,-999.0,83,0.00,,,0.00,PyWeather,2013-02-05 15:33:00,
2013-02-05 05:34:00,66.7,61.4,29.94,North,11,20.0,30.0,83,0.00,,,0.00,PyWeather,2013-02-05 15:34:00,
2013-02-05 05:35:00,65.6,61.0,29.95,North,355,15.0,22.0,85,0.00,,,0.00,PyWeather,2013-02-05 15:35:00,
2013-02-05 05:37:00,66.8,61.5,29.95,North,360,19.0,30.0,83,0.00,,,0.00,PyWeather,2013-02-05 15:37:00,
2013-02-05 05:38:00,66.9,61.6,29.94,North,360,19.0,30.0,83,0.00,,,0.00,PyWeather,2013-02-05 15:38:00,
2013-02-05 05:39:00,66.9,61.3,29.94,North,355,19.0,30.0,82,0.00,,,0.00,PyWeather,2013-02-05 15:39:00,
2013-02-05 05:41:00,65.8,61.2,29.94,North,355,16.0,-999.0,85,0.00,,,0.00,PyWeather,2013-02-05 15:41:00,
2013-02-05 05:42:00,67.2,61.6,29.94,North,355,18.0,30.0,82,0.00,,,0.00,PyWeather,2013-02-05 15:42:00,
2013-02-05 05:46:00,66.3,61.3,29.94,North,349,19.0,-999.0,84,0.00,,,0.00,PyWeather,2013-02-05 15:46:00,
2013-02-05 05:51:00,66.8,61.5,29.95,NNE,17,19.0,30.0,83,0.00,,,0.00,PyWeather,2013-02-05 15:51:00,
2013-02-05 05:56:00,67.2,61.6,29.94,North,355,18.0,30.0,82,0.00,,,0.00,PyWeather,2013-02-05 15:56:00,
2013-02-05 06:01:00,67.2,61.6,29.94,North,355,19.0,27.0,82,0.00,,,0.00,PyWeather,2013-02-05 16:01:00,
2013-02-05 06:06:00,67.2,61.6,29.95,North,360,20.0,27.0,82,0.00,,,0.00,PyWeather,2013-02-05 16:06:00,
2013-02-05 06:11:00,67.3,61.7,29.95,North,355,19.0,30.0,82,0.00,,,0.00,PyWeather,2013-02-05 16:11:00,
2013-02-05 06:16:00,67.1,61.5,29.95,North,351,17.0,30.0,82,0.00,,,0.00,PyWeather,2013-02-05 16:16:00,
2013-02-05 06:21:00,67.4,61.8,29.94,North,355,17.0,27.0,82,0.00,,,0.00,PyWeather,2013-02-05 16:21:00,
2013-02-05 06:27:00,67.5,61.9,29.94,North,5,18.0,27.0,82,0.00,,,0.00,PyWeather,2013-02-05 16:27:00,
2013-02-05 06:32:00,67.4,61.8,29.95,North,355,18.0,26.0,82,0.00,,,0.00,PyWeather,2013-02-05 16:32:00,
2013-02-05 06:37:00,67.4,61.8,29.95,North,360,18.0,26.0,82,0.00,,,0.00,PyWeather,2013-02-05 16:37:00,
2013-02-05 06:42:00,67.4,61.8,29.96,North,5,16.0,24.0,82,0.00,,,0.00,PyWeather,2013-02-05 16:42:00,
2013-02-05 06:47:00,67.4,61.8,29.95,North,355,16.0,24.0,82,0.00,,,0.00,PyWeather,2013-02-05 16:47:00,
2013-02-05 06:52:00,67.7,62.1,29.95,NNW,348,16.0,23.0,82,0.00,,,0.00,PyWeather,2013-02-05 16:52:00,
2013-02-05 06:57:00,67.8,61.8,29.95,North,349,17.0,23.0,81,0.00,,,0.00,PyWeather,2013-02-05 16:57:00,
2013-02-05 07:02:00,68.1,62.1,29.95,NNE,13,19.0,27.0,81,0.00,,,0.00,PyWeather,2013-02-05 17:02:00,
2013-02-05 07:04:00,67.9,61.9,29.97,NNE,19,15.0,23.0,81,0.00,,,0.00,PyWeather,2013-02-05 17:04:00,
2013-02-05 07:06:00,68.0,62.0,29.97,North,360,15.0,23.0,81,0.00,,,0.00,PyWeather,2013-02-05 17:06:00,
2013-02-05 07:07:00,68.0,61.7,29.96,NNE,30,18.0,27.0,80,0.00,,,0.00,PyWeather,2013-02-05 17:07:00,
2013-02-05 07:09:00,68.0,61.7,29.97,North,360,14.0,23.0,80,0.00,,,0.00,PyWeather,2013-02-05 17:09:00,
2013-02-05 07:11:00,68.0,61.7,29.97,NNE,18,15.0,23.0,80,0.00,,,0.00,PyWeather,2013-02-05 17:11:00,
2013-02-05 07:12:00,68.0,61.7,29.96,NNE,17,16.0,26.0,80,0.00,,,0.00,PyWeather,2013-02-05 17:12:00,
2013-02-05 07:14:00,68.0,61.7,29.97,North,9,15.0,23.0,80,0.00,,,0.00,PyWeather,2013-02-05 17:14:00,
2013-02-05 07:15:00,68.1,61.8,29.97,North,360,15.0,-999.0,80,0.00,,,0.00,PyWeather,2013-02-05 17:15:00,
2013-02-05 07:16:00,68.1,61.8,29.97,North,5,15.0,-999.0,80,0.00,,,0.00,PyWeather,2013-02-05 17:16:00,
2013-02-05 07:17:00,67.9,61.9,29.97,NNE,12,15.0,26.0,81,0.00,,,0.00,PyWeather,2013-02-05 17:17:00,
2013-02-05 07:18:00,68.1,61.8,29.97,North,5,15.0,-999.0,80,0.00,,,0.00,PyWeather,2013-02-05 17:18:00,
2013-02-05 07:19:00,68.2,61.9,29.97,NNE,27,15.0,-999.0,80,0.00,,,0.00,PyWeather,2013-02-05 17:19:00,
2013-02-05 07:20:00,68.3,62.0,29.97,North,5,15.0,-999.0,80,0.00,,,0.00,PyWeather,2013-02-05 17:20:00,
2013-02-05 07:21:00,68.3,62.0,29.96,NNE,19,14.0,-999.0,80,0.00,,,0.00,PyWeather,2013-02-05 17:21:00,
2013-02-05 07:22:00,68.0,61.7,29.97,NNW,348,14.0,23.0,80,0.00,,,0.00,PyWeather,2013-02-05 17:22:00,
2013-02-05 07:23:00,68.5,61.8,29.97,NNE,32,14.0,-999.0,79,0.00,,,0.00,PyWeather,2013-02-05 17:23:00,
2013-02-05 07:24:00,68.5,61.8,29.97,North,9,15.0,-999.0,79,0.00,,,0.00,PyWeather,2013-02-05 17:24:00,
2013-02-05 07:25:00,68.6,61.9,29.97,NNE,19,15.0,23.0,79,0.00,,,0.00,PyWeather,2013-02-05 17:25:00,
2013-02-05 07:27:00,68.0,62.0,29.96,NNE,28,15.0,23.0,81,0.00,,,0.00,PyWeather,2013-02-05 17:27:00,
2013-02-05 07:28:00,68.7,62.0,29.97,North,11,15.0,23.0,79,0.00,,,0.00,PyWeather,2013-02-05 17:28:00,
2013-02-05 07:29:00,68.8,62.1,29.97,NE,34,16.0,23.0,79,0.00,,,0.00,PyWeather,2013-02-05 17:29:00,
2013-02-05 07:30:00,68.8,62.1,29.98,NNE,17,16.0,23.0,79,0.00,,,0.00,PyWeather,2013-02-05 17:30:00,
2013-02-05 07:31:00,68.8,62.1,29.98,NNE,32,16.0,23.0,79,0.00,,,0.00,PyWeather,2013-02-05 17:31:00,
2013-02-05 07:32:00,68.1,61.8,29.97,NNE,24,15.0,-999.0,80,0.00,,,0.00,PyWeather,2013-02-05 17:32:00,
2013-02-05 07:33:00,68.9,62.2,29.98,NNE,26,15.0,23.0,79,0.00,,,0.00,PyWeather,2013-02-05 17:33:00,
2013-02-05 07:34:00,68.9,61.9,29.98,NNE,18,15.0,23.0,78,0.00,,,0.00,PyWeather,2013-02-05 17:34:00,
2013-02-05 07:36:00,69.0,62.0,29.98,NNE,12,15.0,23.0,78,0.00,,,0.00,PyWeather,2013-02-05 17:36:00,
2013-02-05 07:37:00,68.5,61.8,29.97,NNE,13,14.0,-999.0,79,0.00,,,0.00,PyWeather,2013-02-05 17:37:00,
2013-02-05 07:39:00,69.2,62.2,29.98,NE,35,13.0,23.0,78,0.00,,,0.00,PyWeather,2013-02-05 17:39:00,
2013-02-05 07:42:00,68.7,62.0,29.97,NNE,26,15.0,23.0,79,0.00,,,0.00,PyWeather,2013-02-05 17:42:00,
2013-02-05 07:43:00,69.3,62.2,29.98,North,351,13.0,23.0,78,0.00,,,0.00,PyWeather,2013-02-05 17:43:00,
2013-02-05 07:47:00,68.9,62.2,29.98,NNE,14,15.0,23.0,79,0.00,,,0.00,PyWeather,2013-02-05 17:47:00,
2013-02-05 07:52:00,69.0,62.0,29.98,NNE,19,14.0,23.0,78,0.00,,,0.00,PyWeather,2013-02-05 17:52:00,
2013-02-05 07:57:00,69.3,62.2,29.98,North,355,13.0,23.0,78,0.00,,,0.00,PyWeather,2013-02-05 17:57:00,
2013-02-05 08:03:00,69.6,62.2,29.97,North,360,14.0,-999.0,77,0.00,,,0.00,PyWeather,2013-02-05 18:03:00,
2013-02-05 08:08:00,69.9,62.1,29.96,NNE,33,15.0,-999.0,76,0.00,,,0.00,PyWeather,2013-02-05 18:08:00,
2013-02-05 08:10:00,70.7,62.2,29.99,NNE,33,14.0,30.0,74,0.00,,,0.00,PyWeather,2013-02-05 18:10:00,
2013-02-05 08:11:00,70.9,62.3,29.99,NNE,28,14.0,30.0,74,0.00,,,0.00,PyWeather,2013-02-05 18:11:00,
2013-02-05 08:13:00,70.1,62.3,29.98,NE,53,18.0,23.0,76,0.00,,,0.00,PyWeather,2013-02-05 18:13:00,
2013-02-05 08:15:00,71.1,62.2,29.99,North,9,15.0,25.0,73,0.00,,,0.00,PyWeather,2013-02-05 18:15:00,
2013-02-05 08:16:00,71.2,62.6,29.99,NE,38,15.0,25.0,74,0.00,,,0.00,PyWeather,2013-02-05 18:16:00,
2013-02-05 08:17:00,71.3,62.4,29.99,NE,35,15.0,25.0,73,0.00,,,0.00,PyWeather,2013-02-05 18:17:00,
2013-02-05 08:18:00,69.9,61.4,29.98,NE,51,16.0,23.0,74,0.00,,,0.00,PyWeather,2013-02-05 18:18:00,
2013-02-05 08:19:00,71.4,62.5,29.98,North,9,14.0,25.0,73,0.00,,,0.00,PyWeather,2013-02-05 18:19:00,
2013-02-05 08:20:00,71.4,62.5,29.98,NNE,32,14.0,25.0,73,0.00,,,0.00,PyWeather,2013-02-05 18:20:00,
2013-02-05 08:21:00,71.5,62.6,29.98,NNE,22,15.0,25.0,73,0.00,,,0.00,PyWeather,2013-02-05 18:21:00,
2013-02-05 08:22:00,71.5,62.6,29.98,NNE,24,14.0,25.0,73,0.00,,,0.00,PyWeather,2013-02-05 18:22:00,
2013-02-05 08:23:00,71.6,62.6,29.98,NNE,23,14.0,25.0,73,0.00,,,0.00,PyWeather,2013-02-05 18:23:00,
2013-02-05 08:24:00,70.6,61.7,29.99,NE,40,14.0,30.0,73,0.00,,,0.00,PyWeather,2013-02-05 18:24:00,
2013-02-05 08:25:00,71.7,62.7,29.98,NNE,30,13.0,21.0,73,0.00,,,0.00,PyWeather,2013-02-05 18:25:00,
2013-02-05 08:26:00,71.7,62.7,29.98,North,10,13.0,21.0,73,0.00,,,0.00,PyWeather,2013-02-05 18:26:00,
2013-02-05 08:27:00,71.8,62.5,29.98,North,5,14.0,21.0,72,0.00,,,0.00,PyWeather,2013-02-05 18:27:00,
2013-02-05 08:28:00,71.8,62.5,29.98,NNE,21,14.0,21.0,72,0.00,,,0.00,PyWeather,2013-02-05 18:28:00,
2013-02-05 08:29:00,71.1,62.2,29.98,NNE,30,15.0,25.0,73,0.00,,,0.00,PyWeather,2013-02-05 18:29:00,
2013-02-05 08:30:00,71.9,62.6,29.98,NNE,15,15.0,21.0,72,0.00,,,0.00,PyWeather,2013-02-05 18:30:00,
2013-02-05 08:31:00,72.0,62.7,29.98,NNE,20,15.0,21.0,72,0.00,,,0.00,PyWeather,2013-02-05 18:31:00,
2013-02-05 08:32:00,72.0,62.7,29.98,NNE,17,16.0,21.0,72,0.00,,,0.00,PyWeather,2013-02-05 18:32:00,
2013-02-05 08:33:00,72.1,62.7,29.98,NNE,26,16.0,21.0,72,0.00,,,0.00,PyWeather,2013-02-05 18:33:00,
2013-02-05 08:34:00,71.4,62.5,29.98,NNE,13,14.0,25.0,73,0.00,,,0.00,PyWeather,2013-02-05 18:34:00,
2013-02-05 08:35:00,72.1,62.7,29.98,NNE,26,17.0,27.0,72,0.00,,,0.00,PyWeather,2013-02-05 18:35:00,
2013-02-05 08:36:00,72.2,62.8,29.98,NNE,31,18.0,27.0,72,0.00,,,0.00,PyWeather,2013-02-05 18:36:00,
2013-02-05 08:37:00,72.2,62.5,29.98,NE,39,18.0,27.0,71,0.00,,,0.00,PyWeather,2013-02-05 18:37:00,
2013-02-05 08:38:00,72.2,62.5,29.98,NE,38,18.0,27.0,71,0.00,,,0.00,PyWeather,2013-02-05 18:38:00,
2013-02-05 08:39:00,71.7,62.7,29.98,NNE,32,13.0,21.0,73,0.00,,,0.00,PyWeather,2013-02-05 18:39:00,
2013-02-05 08:44:00,71.9,62.6,29.97,NE,36,14.0,21.0,72,0.00,,,0.00,PyWeather,2013-02-05 18:44:00,
2013-02-05 08:49:00,72.1,62.7,29.98,NE,34,17.0,27.0,72,0.00,,,0.00,PyWeather,2013-02-05 18:49:00,
2013-02-05 08:55:00,72.3,62.9,29.98,NE,44,19.0,27.0,72,0.00,,,0.00,PyWeather,2013-02-05 18:55:00,
2013-02-05 09:00:00,72.5,62.7,29.99,NE,46,18.0,28.0,71,0.00,,,0.00,PyWeather,2013-02-05 19:00:00,
2013-02-05 09:05:00,72.9,63.5,29.99,NE,42,15.0,28.0,72,0.00,,,0.00,PyWeather,2013-02-05 19:05:00,
2013-02-05 09:10:00,73.0,63.2,29.99,NNE,21,16.0,28.0,71,0.00,,,0.00,PyWeather,2013-02-05 19:10:00,
2013-02-05 09:11:00,73.2,63.8,29.99,NNE,17,17.0,25.0,72,0.00,,,0.00,PyWeather,2013-02-05 19:11:00,
2013-02-05 09:12:00,73.3,63.9,29.99,NNE,22,17.0,25.0,72,0.00,,,0.00,PyWeather,2013-02-05 19:12:00,
2013-02-05 09:14:00,73.2,63.4,29.99,NNE,17,18.0,28.0,71,0.00,,,0.00,PyWeather,2013-02-05 19:14:00,
2013-02-05 09:15:00,73.3,63.5,29.98,NNE,23,18.0,28.0,71,0.00,,,0.00,PyWeather,2013-02-05 19:15:00,
2013-02-05 09:16:00,73.2,63.8,29.99,North,5,17.0,28.0,72,0.00,,,0.00,PyWeather,2013-02-05 19:16:00,
2013-02-05 09:17:00,73.4,63.6,29.98,NNE,15,18.0,28.0,71,0.00,,,0.00,PyWeather,2013-02-05 19:17:00,
2013-02-05 09:18:00,73.4,63.2,29.98,North,351,17.0,28.0,70,0.00,,,0.00,PyWeather,2013-02-05 19:18:00,
2013-02-05 09:19:00,73.4,63.2,29.98,NE,43,17.0,28.0,70,0.00,,,0.00,PyWeather,2013-02-05 19:19:00,
2013-02-05 09:20:00,73.5,63.3,29.98,NNE,19,17.0,28.0,70,0.00,,,0.00,PyWeather,2013-02-05 19:20:00,
2013-02-05 09:21:00,73.2,63.4,29.99,NE,39,17.0,25.0,71,0.00,,,0.00,PyWeather,2013-02-05 19:21:00,
2013-02-05 09:22:00,73.5,63.3,29.98,NNE,27,18.0,28.0,70,0.00,,,0.00,PyWeather,2013-02-05 19:22:00,
2013-02-05 09:23:00,73.5,63.3,29.98,NNE,30,18.0,28.0,70,0.00,,,0.00,PyWeather,2013-02-05 19:23:00,
2013-02-05 09:24:00,73.5,62.9,29.98,NNE,29,18.0,28.0,69,0.00,,,0.00,PyWeather,2013-02-05 19:24:00,
2013-02-05 09:25:00,73.6,63.4,29.98,NNE,26,19.0,31.0,70,0.00,,,0.00,PyWeather,2013-02-05 19:25:00,
2013-02-05 09:26:00,73.3,63.9,29.99,North,360,17.0,25.0,72,0.00,,,0.00,PyWeather,2013-02-05 19:26:00,
2013-02-05 09:27:00,73.6,63.0,29.98,NE,44,19.0,31.0,69,0.00,,,0.00,PyWeather,2013-02-05 19:27:00,
2013-02-05 09:29:00,73.8,63.6,29.98,NNE,28,20.0,31.0,70,0.00,,,0.00,PyWeather,2013-02-05 19:29:00,
2013-02-05 09:30:00,73.9,63.7,29.98,NE,35,19.0,31.0,70,0.00,,,0.00,PyWeather,2013-02-05 19:30:00,
2013-02-05 09:31:00,73.4,63.6,29.98,North,5,18.0,28.0,71,0.00,,,0.00,PyWeather,2013-02-05 19:31:00,
2013-02-05 09:32:00,74.0,63.4,29.98,NE,42,19.0,31.0,69,0.00,,,0.00,PyWeather,2013-02-05 19:32:00,
2013-02-05 09:33:00,74.0,63.4,29.98,NE,49,19.0,31.0,69,0.00,,,0.00,PyWeather,2013-02-05 19:33:00,
2013-02-05 09:35:00,74.1,63.5,29.97,NE,44,18.0,28.0,69,0.00,,,0.00,PyWeather,2013-02-05 19:35:00,
2013-02-05 09:36:00,74.2,63.2,29.98,NE,37,18.0,28.0,68,0.00,,,0.00,PyWeather,2013-02-05 19:36:00,
2013-02-05 09:37:00,73.5,63.3,29.98,NE,44,18.0,28.0,70,0.00,,,0.00,PyWeather,2013-02-05 19:37:00,
2013-02-05 09:38:00,74.5,63.0,29.97,NE,47,17.0,28.0,67,0.00,,,0.00,PyWeather,2013-02-05 19:38:00,
2013-02-05 09:39:00,74.5,62.6,29.97,NE,37,18.0,28.0,66,0.00,,,0.00,PyWeather,2013-02-05 19:39:00,
2013-02-05 09:40:00,74.6,62.3,29.97,ENE,64,18.0,28.0,65,0.00,,,0.00,PyWeather,2013-02-05 19:40:00,
2013-02-05 09:42:00,73.7,63.5,29.98,NE,38,20.0,31.0,70,0.00,,,0.00,PyWeather,2013-02-05 19:42:00,
2013-02-05 09:43:00,74.7,61.9,29.98,NE,55,18.0,28.0,64,0.00,,,0.00,PyWeather,2013-02-05 19:43:00,
2013-02-05 09:44:00,74.8,62.0,29.98,ENE,61,18.0,28.0,64,0.00,,,0.00,PyWeather,2013-02-05 19:44:00,
2013-02-05 09:45:00,74.8,62.0,29.98,NE,46,18.0,31.0,64,0.00,,,0.00,PyWeather,2013-02-05 19:45:00,
2013-02-05 09:46:00,74.9,62.1,29.98,ENE,62,18.0,31.0,64,0.00,,,0.00,PyWeather,2013-02-05 19:46:00,
2013-02-05 09:48:00,74.0,63.4,29.98,NNE,25,19.0,31.0,69,0.00,,,0.00,PyWeather,2013-02-05 19:48:00,
2013-02-05 09:49:00,75.3,61.6,29.98,ENE,78,18.0,31.0,62,0.00,,,0.00,PyWeather,2013-02-05 19:49:00,
2013-02-05 09:51:00,75.5,61.3,29.98,East,79,17.0,31.0,61,0.00,,,0.00,PyWeather,2013-02-05 19:51:00,
2013-02-05 09:52:00,75.5,60.8,29.99,NE,55,16.0,31.0,60,0.00,,,0.00,PyWeather,2013-02-05 19:52:00,
2013-02-05 09:53:00,74.5,63.0,29.97,ENE,66,17.0,28.0,67,0.00,,,0.00,PyWeather,2013-02-05 19:53:00,
2013-02-05 09:56:00,75.6,61.4,29.98,NE,34,15.0,26.0,61,0.00,,,0.00,PyWeather,2013-02-05 19:56:00,
2013-02-05 09:58:00,74.7,61.9,29.98,ENE,64,18.0,28.0,64,0.00,,,0.00,PyWeather,2013-02-05 19:58:00,
2013-02-05 10:01:00,75.5,61.8,29.98,NNE,26,15.0,26.0,62,0.00,,,0.00,PyWeather,2013-02-05 20:01:00,
2013-02-05 10:02:00,75.5,62.2,29.98,NE,42,14.0,26.0,63,0.00,,,0.00,PyWeather,2013-02-05 20:02:00,
2013-02-05 10:03:00,75.1,61.9,29.98,ENE,76,18.0,31.0,63,0.00,,,0.00,PyWeather,2013-02-05 20:03:00,
2013-02-05 10:05:00,75.6,62.8,29.97,North,10,14.0,25.0,64,0.00,,,0.00,PyWeather,2013-02-05 20:05:00,
2013-02-05 10:07:00,75.6,63.2,29.97,NNE,22,15.0,25.0,65,0.00,,,0.00,PyWeather,2013-02-05 20:07:00,
2013-02-05 10:08:00,75.5,61.3,29.98,NE,35,16.0,31.0,61,0.00,,,0.00,PyWeather,2013-02-05 20:08:00,
2013-02-05 10:09:00,75.6,63.7,29.97,NNE,33,15.0,25.0,66,0.00,,,0.00,PyWeather,2013-02-05 20:09:00,
2013-02-05 10:10:00,75.3,63.4,29.97,North,11,17.0,25.0,66,0.00,,,0.00,PyWeather,2013-02-05 20:10:00,
2013-02-05 10:12:00,75.2,63.3,29.95,North,355,17.0,25.0,66,0.00,,,0.00,PyWeather,2013-02-05 20:12:00,
2013-02-05 10:13:00,75.6,60.9,29.97,NE,49,15.0,26.0,60,0.00,,,0.00,PyWeather,2013-02-05 20:13:00,
2013-02-05 10:14:00,75.1,64.0,29.96,NNE,25,19.0,30.0,68,0.00,,,0.00,PyWeather,2013-02-05 20:14:00,
2013-02-05 10:15:00,75.3,64.2,29.96,NNE,15,19.0,30.0,68,0.00,,,0.00,PyWeather,2013-02-05 20:15:00,
2013-02-05 10:16:00,75.3,63.8,29.96,NE,41,19.0,30.0,67,0.00,,,0.00,PyWeather,2013-02-05 20:16:00,
2013-02-05 10:17:00,75.2,62.8,29.96,NE,46,21.0,30.0,65,0.00,,,0.00,PyWeather,2013-02-05 20:17:00,
2013-02-05 10:18:00,75.6,62.3,29.97,NNE,24,14.0,26.0,63,0.00,,,0.00,PyWeather,2013-02-05 20:18:00,
2013-02-05 10:19:00,74.9,62.6,29.96,ENE,58,22.0,30.0,65,0.00,,,0.00,PyWeather,2013-02-05 20:19:00,
2013-02-05 10:20:00,74.8,62.9,29.97,NE,47,22.0,30.0,66,0.00,,,0.00,PyWeather,2013-02-05 20:20:00,
2013-02-05 10:21:00,74.9,63.0,29.96,NE,47,22.0,30.0,66,0.00,,,0.00,PyWeather,2013-02-05 20:21:00,
2013-02-05 10:22:00,75.0,63.1,29.96,ENE,57,22.0,30.0,66,0.00,,,0.00,PyWeather,2013-02-05 20:22:00,
2013-02-05 10:23:00,75.7,63.8,29.97,NNE,28,15.0,25.0,66,0.00,,,0.00,PyWeather,2013-02-05 20:23:00,
2013-02-05 10:27:00,75.1,62.7,29.97,NE,40,22.0,36.0,65,0.00,,,0.00,PyWeather,2013-02-05 20:27:00,
2013-02-05 10:28:00,75.1,62.3,29.97,NE,38,22.0,36.0,64,0.00,,,0.00,PyWeather,2013-02-05 20:28:00,
2013-02-05 10:29:00,75.2,64.1,29.96,NNE,20,19.0,30.0,68,0.00,,,0.00,PyWeather,2013-02-05 20:29:00,
2013-02-05 10:30:00,75.1,62.7,29.97,ENE,61,21.0,36.0,65,0.00,,,0.00,PyWeather,2013-02-05 20:30:00,
2013-02-05 10:31:00,75.0,62.7,29.97,NE,38,21.0,36.0,65,0.00,,,0.00,PyWeather,2013-02-05 20:31:00,
2013-02-05 10:33:00,74.9,62.6,29.96,NNE,32,21.0,36.0,65,0.00,,,0.00,PyWeather,2013-02-05 20:33:00,
2013-02-05 10:34:00,74.8,62.9,29.96,NE,47,23.0,30.0,66,0.00,,,0.00,PyWeather,2013-02-05 20:34:00,
2013-02-05 10:35:00,74.8,62.5,29.97,NNE,28,21.0,33.0,65,0.00,,,0.00,PyWeather,2013-02-05 20:35:00,
2013-02-05 10:39:00,75.2,62.4,29.97,NE,35,23.0,36.0,64,0.00,,,0.00,PyWeather,2013-02-05 20:39:00,
2013-02-05 10:44:00,75.1,62.7,29.97,NE,50,21.0,36.0,65,0.00,,,0.00,PyWeather,2013-02-05 20:44:00,
2013-02-05 10:50:00,74.8,62.5,29.97,NE,34,21.0,33.0,65,0.00,,,0.00,PyWeather,2013-02-05 20:50:00,
2013-02-05 10:55:00,74.8,63.3,29.96,NE,37,20.0,33.0,67,0.00,,,0.00,PyWeather,2013-02-05 20:55:00,
2013-02-05 11:00:00,75.3,62.5,29.95,NE,51,19.0,30.0,64,0.00,,,0.00,PyWeather,2013-02-05 21:00:00,
2013-02-05 11:05:00,75.1,63.2,29.95,NE,36,20.0,30.0,66,0.00,,,0.00,PyWeather,2013-02-05 21:05:00,
2013-02-05 11:10:00,75.6,63.7,29.94,NE,34,20.0,30.0,66,0.00,,,0.00,PyWeather,2013-02-05 21:10:00,
2013-02-05 11:15:00,76.7,62.5,29.95,East,88,19.0,30.0,61,0.00,,,0.00,PyWeather,2013-02-05 21:15:00,
2013-02-05 11:16:00,77.9,61.6,29.95,ENE,69,15.0,27.0,57,0.00,,,0.00,PyWeather,2013-02-05 21:16:00,
2013-02-05 11:17:00,77.8,62.0,29.95,NE,49,16.0,27.0,58,0.00,,,0.00,PyWeather,2013-02-05 21:17:00,
2013-02-05 11:18:00,77.8,61.5,29.95,ENE,62,16.0,27.0,57,0.00,,,0.00,PyWeather,2013-02-05 21:18:00,
2013-02-05 11:19:00,77.6,61.9,29.95,NE,53,17.0,27.0,58,0.00,,,0.00,PyWeather,2013-02-05 21:19:00,
2013-02-05 11:20:00,77.3,61.1,29.95,ENE,61,14.0,29.0,57,0.00,,,0.00,PyWeather,2013-02-05 21:20:00,
2013-02-05 11:21:00,77.6,62.3,29.95,ENE,61,17.0,27.0,59,0.00,,,0.00,PyWeather,2013-02-05 21:21:00,
2013-02-05 11:22:00,77.6,61.9,29.95,NE,46,17.0,27.0,58,0.00,,,0.00,PyWeather,2013-02-05 21:22:00,
2013-02-05 11:25:00,77.9,61.1,29.95,ENE,76,9.0,29.0,56,0.00,,,0.00,PyWeather,2013-02-05 21:25:00,
2013-02-05 11:26:00,77.4,62.6,29.95,NE,40,17.0,27.0,60,0.00,,,0.00,PyWeather,2013-02-05 21:26:00,
2013-02-05 11:27:00,77.3,62.6,29.95,NE,42,17.0,27.0,60,0.00,,,0.00,PyWeather,2013-02-05 21:27:00,
2013-02-05 11:28:00,77.3,62.6,29.95,NE,55,16.0,27.0,60,0.00,,,0.00,PyWeather,2013-02-05 21:28:00,
2013-02-05 11:29:00,77.4,62.6,29.95,NE,36,16.0,27.0,60,0.00,,,0.00,PyWeather,2013-02-05 21:29:00,
2013-02-05 11:30:00,77.9,62.1,29.95,East,90,14.0,27.0,58,0.00,,,0.00,PyWeather,2013-02-05 21:30:00,
2013-02-05 11:31:00,77.2,62.9,29.95,ENE,71,19.0,27.0,61,0.00,,,0.00,PyWeather,2013-02-05 21:31:00,
2013-02-05 11:32:00,77.3,63.0,29.95,NE,40,19.0,27.0,61,0.00,,,0.00,PyWeather,2013-02-05 21:32:00,
2013-02-05 11:33:00,77.6,62.8,29.95,ENE,60,18.0,27.0,60,0.00,,,0.00,PyWeather,2013-02-05 21:33:00,
2013-02-05 11:34:00,77.7,62.9,29.95,NE,56,18.0,31.0,60,0.00,,,0.00,PyWeather,2013-02-05 21:34:00,
2013-02-05 11:35:00,77.8,62.5,29.95,NE,43,18.0,31.0,59,0.00,,,0.00,PyWeather,2013-02-05 21:35:00,
2013-02-05 11:36:00,77.6,62.3,29.95,ENE,58,17.0,27.0,59,0.00,,,0.00,PyWeather,2013-02-05 21:36:00,
2013-02-05 11:37:00,77.6,62.8,29.95,ENE,61,18.0,31.0,60,0.00,,,0.00,PyWeather,2013-02-05 21:37:00,
2013-02-05 11:38:00,77.5,63.2,29.95,ENE,61,18.0,31.0,61,0.00,,,0.00,PyWeather,2013-02-05 21:38:00,
2013-02-05 11:39:00,77.5,62.7,29.95,NNE,33,17.0,31.0,60,0.00,,,0.00,PyWeather,2013-02-05 21:39:00,
2013-02-05 11:40:00,77.5,62.7,29.95,NE,43,17.0,31.0,60,0.00,,,0.00,PyWeather,2013-02-05 21:40:00,
2013-02-05 11:41:00,77.3,62.6,29.95,NNE,28,17.0,27.0,60,0.00,,,0.00,PyWeather,2013-02-05 21:41:00,
2013-02-05 11:42:00,77.1,62.8,29.95,NE,45,19.0,31.0,61,0.00,,,0.00,PyWeather,2013-02-05 21:42:00,
2013-02-05 11:43:00,77.0,62.7,29.95,NE,42,19.0,31.0,61,0.00,,,0.00,PyWeather,2013-02-05 21:43:00,
2013-02-05 11:45:00,76.8,62.6,29.95,NE,40,19.0,30.0,61,0.00,,,0.00,PyWeather,2013-02-05 21:45:00,
2013-02-05 11:46:00,77.2,62.9,29.95,ENE,64,19.0,27.0,61,0.00,,,0.00,PyWeather,2013-02-05 21:46:00,
2013-02-05 11:52:00,77.5,62.7,29.95,NE,53,18.0,31.0,60,0.00,,,0.00,PyWeather,2013-02-05 21:52:00,
2013-02-05 11:57:00,77.2,62.9,29.94,ENE,63,18.0,31.0,61,0.00,,,0.00,PyWeather,2013-02-05 21:57:00,
2013-02-05 12:02:00,76.9,63.1,29.95,NE,40,19.0,30.0,62,0.00,,,0.00,PyWeather,2013-02-05 22:02:00,
2013-02-05 12:07:00,76.6,61.4,29.94,NE,42,19.0,30.0,59,0.00,,,0.00,PyWeather,2013-02-05 22:07:00,
2013-02-05 12:12:00,76.9,62.2,29.94,NE,51,19.0,32.0,60,0.00,,,0.00,PyWeather,2013-02-05 22:12:00,
2013-02-05 12:17:00,76.9,62.6,29.93,NE,44,20.0,32.0,61,0.00,,,0.00,PyWeather,2013-02-05 22:17:00,
2013-02-05 12:22:00,77.4,63.6,29.93,NNE,24,22.0,32.0,62,0.00,,,0.00,PyWeather,2013-02-05 22:22:00,
2013-02-05 12:27:00,76.9,64.0,29.93,NE,38,21.0,32.0,64,0.00,,,0.00,PyWeather,2013-02-05 22:27:00,
2013-02-05 12:29:00,76.5,64.9,29.92,NNE,29,21.0,32.0,67,0.00,,,0.00,PyWeather,2013-02-05 22:29:00,
2013-02-05 12:30:00,76.5,64.9,29.92,NE,34,21.0,32.0,67,0.00,,,0.00,PyWeather,2013-02-05 22:30:00,
2013-02-05 12:31:00,76.5,64.9,29.92,NNE,29,21.0,32.0,67,0.00,,,0.00,PyWeather,2013-02-05 22:31:00,
2013-02-05 12:32:00,76.8,64.4,29.92,NNE,19,21.0,31.0,65,0.00,,,0.00,PyWeather,2013-02-05 22:32:00,
2013-02-05 12:33:00,76.3,64.8,29.92,NNE,30,21.0,32.0,67,0.00,,,0.00,PyWeather,2013-02-05 22:33:00,
2013-02-05 12:34:00,76.4,64.9,29.92,NNE,24,21.0,32.0,67,0.00,,,0.00,PyWeather,2013-02-05 22:34:00,
2013-02-05 12:36:00,76.6,64.6,29.91,NE,44,21.0,31.0,66,0.00,,,0.00,PyWeather,2013-02-05 22:36:00,
2013-02-05 12:37:00,76.9,65.3,29.92,NE,55,20.0,31.0,67,0.00,,,0.00,PyWeather,2013-02-05 22:37:00,
2013-02-05 12:38:00,76.5,64.5,29.92,NE,38,21.0,31.0,66,0.00,,,0.00,PyWeather,2013-02-05 22:38:00,
2013-02-05 12:39:00,76.3,64.3,29.92,NNE,26,21.0,31.0,66,0.00,,,0.00,PyWeather,2013-02-05 22:39:00,
2013-02-05 12:41:00,76.2,64.7,29.91,NE,53,21.0,31.0,67,0.00,,,0.00,PyWeather,2013-02-05 22:41:00,
2013-02-05 12:42:00,76.7,65.1,29.92,NE,53,21.0,32.0,67,0.00,,,0.00,PyWeather,2013-02-05 22:42:00,
2013-02-05 12:45:00,75.9,64.8,29.91,NE,42,22.0,33.0,68,0.00,,,0.00,PyWeather,2013-02-05 22:45:00,
2013-02-05 12:46:00,75.9,64.4,29.91,NE,40,22.0,33.0,67,0.00,,,0.00,PyWeather,2013-02-05 22:46:00,
2013-02-05 12:47:00,76.4,64.9,29.92,NE,42,21.0,32.0,67,0.00,,,0.00,PyWeather,2013-02-05 22:47:00,
2013-02-05 12:49:00,75.7,64.2,29.91,NE,45,23.0,33.0,67,0.00,,,0.00,PyWeather,2013-02-05 22:49:00,
2013-02-05 12:50:00,75.7,64.6,29.91,NE,53,23.0,33.0,68,0.00,,,0.00,PyWeather,2013-02-05 22:50:00,
2013-02-05 12:51:00,75.8,64.7,29.91,NE,40,23.0,33.0,68,0.00,,,0.00,PyWeather,2013-02-05 22:51:00,
2013-02-05 12:52:00,76.6,65.0,29.92,ENE,59,21.0,31.0,67,0.00,,,0.00,PyWeather,2013-02-05 22:52:00,
2013-02-05 12:53:00,75.9,64.8,29.91,NE,54,22.0,33.0,68,0.00,,,0.00,PyWeather,2013-02-05 22:53:00,
2013-02-05 12:54:00,76.3,64.8,29.91,NE,46,21.0,32.0,67,0.00,,,0.00,PyWeather,2013-02-05 22:54:00,
2013-02-05 12:57:00,76.2,64.7,29.92,NE,53,21.0,31.0,67,0.00,,,0.00,PyWeather,2013-02-05 22:57:00,
2013-02-05 12:58:00,76.6,64.2,29.91,NE,37,20.0,32.0,65,0.00,,,0.00,PyWeather,2013-02-05 22:58:00,
2013-02-05 12:59:00,76.7,64.7,29.91,NE,35,20.0,32.0,66,0.00,,,0.00,PyWeather,2013-02-05 22:59:00,
2013-02-05 13:00:00,76.7,64.3,29.90,North,360,20.0,32.0,65,0.00,,,0.00,PyWeather,2013-02-05 23:00:00,
2013-02-05 13:01:00,76.9,64.5,29.90,NNE,24,19.0,32.0,65,0.00,,,0.00,PyWeather,2013-02-05 23:01:00,
2013-02-05 13:02:00,75.8,64.7,29.91,NE,50,22.0,33.0,68,0.00,,,0.00,PyWeather,2013-02-05 23:02:00,
2013-02-05 13:03:00,76.9,64.0,29.90,NE,40,19.0,32.0,64,0.00,,,0.00,PyWeather,2013-02-05 23:03:00,
2013-02-05 13:04:00,77.1,63.8,29.90,NE,55,19.0,32.0,63,0.00,,,0.00,PyWeather,2013-02-05 23:04:00,
2013-02-05 13:05:00,77.3,63.5,29.90,NE,36,19.0,28.0,62,0.00,,,0.00,PyWeather,2013-02-05 23:05:00,
2013-02-05 13:06:00,77.5,63.7,29.90,NE,50,18.0,28.0,62,0.00,,,0.00,PyWeather,2013-02-05 23:06:00,
2013-02-05 13:07:00,75.8,64.7,29.91,NNE,18,22.0,33.0,68,0.00,,,0.00,PyWeather,2013-02-05 23:07:00,
2013-02-05 13:08:00,77.5,63.7,29.90,NNE,29,18.0,28.0,62,0.00,,,0.00,PyWeather,2013-02-05 23:08:00,
2013-02-05 13:09:00,77.5,64.1,29.89,NNE,32,18.0,28.0,63,0.00,,,0.00,PyWeather,2013-02-05 23:09:00,
2013-02-05 13:10:00,77.6,63.3,29.90,NE,54,18.0,28.0,61,0.00,,,0.00,PyWeather,2013-02-05 23:10:00,
2013-02-05 13:11:00,77.8,64.0,29.90,ENE,74,18.0,28.0,62,0.00,,,0.00,PyWeather,2013-02-05 23:11:00,
2013-02-05 13:12:00,76.6,64.2,29.91,NE,41,21.0,32.0,65,0.00,,,0.00,PyWeather,2013-02-05 23:12:00,
2013-02-05 13:18:00,77.0,64.1,29.90,NE,38,19.0,32.0,64,0.00,,,0.00,PyWeather,2013-02-05 23:18:00,
2013-02-05 13:23:00,77.6,63.8,29.90,ENE,59,18.0,28.0,62,0.00,,,0.00,PyWeather,2013-02-05 23:23:00,
2013-02-05 13:28:00,78.2,63.4,29.90,ENE,75,18.0,28.0,60,0.00,,,0.00,PyWeather,2013-02-05 23:28:00,
2013-02-05 13:33:00,78.1,63.8,29.90,NE,36,18.0,30.0,61,0.00,,,0.00,PyWeather,2013-02-05 23:33:00,
2013-02-05 13:38:00,78.4,63.6,29.89,ENE,59,17.0,30.0,60,0.00,,,0.00,PyWeather,2013-02-05 23:38:00,
2013-02-05 13:43:00,78.3,63.5,29.89,NE,36,17.0,28.0,60,0.00,,,0.00,PyWeather,2013-02-05 23:43:00,
2013-02-05 13:44:00,79.2,63.9,29.89,NE,38,15.0,24.0,59,0.00,,,0.00,PyWeather,2013-02-05 23:44:00,
2013-02-05 13:45:00,79.5,63.6,29.89,NNE,22,15.0,24.0,58,0.00,,,0.00,PyWeather,2013-02-05 23:45:00,
2013-02-05 13:48:00,78.1,63.3,29.89,NE,39,19.0,28.0,60,0.00,,,0.00,PyWeather,2013-02-05 23:48:00,
2013-02-05 13:49:00,79.7,62.8,29.89,ENE,63,12.0,24.0,56,0.00,,,0.00,PyWeather,2013-02-05 23:49:00,
2013-02-05 13:51:00,79.7,62.3,29.88,NE,36,10.0,24.0,55,0.00,,,0.00,PyWeather,2013-02-05 23:51:00,
2013-02-05 13:52:00,79.6,62.7,29.88,NE,49,10.0,24.0,56,0.00,,,0.00,PyWeather,2013-02-05 23:52:00,
2013-02-05 13:53:00,78.8,63.5,29.89,ENE,58,17.0,27.0,59,0.00,,,0.00,PyWeather,2013-02-05 23:53:00,
2013-02-05 13:56:00,79.9,61.9,29.88,NE,45,12.0,20.0,54,0.00,,,0.00,PyWeather,2013-02-05 23:56:00,
2013-02-05 13:57:00,79.7,62.3,29.88,NE,40,13.0,20.0,55,0.00,,,0.00,PyWeather,2013-02-05 23:57:00,
2013-02-05 13:58:00,78.6,63.8,29.88,North,5,15.0,27.0,60,0.00,,,0.00,PyWeather,2013-02-05 23:58:00,
2013-02-05 13:59:00,79.8,62.9,29.88,NE,40,14.0,20.0,56,0.00,,,0.00,PyWeather,2013-02-05 23:59:00,
2013-02-05 14:00:00,79.7,62.3,29.88,NNE,16,14.0,20.0,55,0.00,,,0.00,PyWeather,2013-02-06 00:00:00,
2013-02-05 14:02:00,79.7,62.8,29.88,NNE,16,15.0,20.0,56,0.00,,,0.00,PyWeather,2013-02-06 00:02:00,
2013-02-05 14:03:00,79.6,62.2,29.89,NNE,30,12.0,24.0,55,0.00,,,0.00,PyWeather,2013-02-06 00:03:00,
2013-02-05 14:04:00,80.0,62.6,29.88,NNE,24,15.0,20.0,55,0.00,,,0.00,PyWeather,2013-02-06 00:04:00,
2013-02-05 14:06:00,80.1,62.1,29.89,NNE,33,15.0,26.0,54,0.00,,,0.00,PyWeather,2013-02-06 00:06:00,
2013-02-05 14:07:00,80.1,62.7,29.89,NNE,29,14.0,26.0,55,0.00,,,0.00,PyWeather,2013-02-06 00:07:00,
2013-02-05 14:08:00,79.6,62.7,29.89,NE,36,10.0,24.0,56,0.00,,,0.00,PyWeather,2013-02-06 00:08:00,
2013-02-05 14:09:00,80.1,62.1,29.89,NNE,22,14.0,26.0,54,0.00,,,0.00,PyWeather,2013-02-06 00:09:00,
2013-02-05 14:10:00,80.0,62.0,29.88,NNE,17,14.0,26.0,54,0.00,,,0.00,PyWeather,2013-02-06 00:10:00,
2013-02-05 14:11:00,80.0,62.6,29.88,NE,34,13.0,26.0,55,0.00,,,0.00,PyWeather,2013-02-06 00:11:00,
2013-02-05 14:12:00,80.1,62.1,29.88,East,81,13.0,26.0,54,0.00,,,0.00,PyWeather,2013-02-06 00:12:00,
2013-02-05 14:13:00,79.7,62.3,29.89,ENE,61,13.0,20.0,55,0.00,,,0.00,PyWeather,2013-02-06 00:13:00,
2013-02-05 14:14:00,80.1,62.7,29.88,NE,35,13.0,23.0,55,0.00,,,0.00,PyWeather,2013-02-06 00:14:00,
2013-02-05 14:15:00,80.0,62.0,29.88,NE,41,13.0,23.0,54,0.00,,,0.00,PyWeather,2013-02-06 00:15:00,
2013-02-05 14:16:00,80.0,62.6,29.88,NE,47,12.0,23.0,55,0.00,,,0.00,PyWeather,2013-02-06 00:16:00,
2013-02-05 14:17:00,80.1,62.7,29.88,NE,39,12.0,23.0,55,0.00,,,0.00,PyWeather,2013-02-06 00:17:00,
2013-02-05 14:18:00,80.0,63.1,29.88,North,360,15.0,20.0,56,0.00,,,0.00,PyWeather,2013-02-06 00:18:00,
2013-02-05 14:19:00,80.4,62.9,29.88,NE,38,12.0,23.0,55,0.00,,,0.00,PyWeather,2013-02-06 00:19:00,
2013-02-05 14:21:00,80.3,62.3,29.88,ENE,67,12.0,23.0,54,0.00,,,0.00,PyWeather,2013-02-06 00:21:00,
2013-02-05 14:23:00,80.1,62.7,29.88,NNE,24,14.0,26.0,55,0.00,,,0.00,PyWeather,2013-02-06 00:23:00,
2013-02-05 14:24:00,79.9,61.4,29.88,SE,129,12.0,21.0,53,0.00,,,0.00,PyWeather,2013-02-06 00:24:00,
2013-02-05 14:26:00,79.7,61.8,29.88,NE,44,11.0,21.0,54,0.00,,,0.00,PyWeather,2013-02-06 00:26:00,
2013-02-05 14:28:00,80.1,62.1,29.88,NE,49,13.0,26.0,54,0.00,,,0.00,PyWeather,2013-02-06 00:28:00,
2013-02-05 14:33:00,80.3,62.9,29.88,NE,45,12.0,23.0,55,0.00,,,0.00,PyWeather,2013-02-06 00:33:00,
2013-02-05 14:38:00,80.0,61.5,29.89,East,89,13.0,23.0,53,0.00,,,0.00,PyWeather,2013-02-06 00:38:00,
2013-02-05 14:43:00,79.6,61.1,29.89,ESE,115,11.0,21.0,53,0.00,,,0.00,PyWeather,2013-02-06 00:43:00,
2013-02-05 14:45:00,79.1,61.2,29.88,East,82,6.0,-999.0,54,0.00,,,0.00,PyWeather,2013-02-06 00:45:00,
2013-02-05 14:48:00,79.5,61.0,29.89,NNE,33,8.0,21.0,53,0.00,,,0.00,PyWeather,2013-02-06 00:48:00,
2013-02-05 14:49:00,79.7,61.8,29.88,ESE,105,8.0,-999.0,54,0.00,,,0.00,PyWeather,2013-02-06 00:49:00,
2013-02-05 14:50:00,79.8,61.3,29.88,ESE,106,7.0,-999.0,53,0.00,,,0.00,PyWeather,2013-02-06 00:50:00,
2013-02-05 14:51:00,79.9,61.4,29.88,ENE,57,7.0,-999.0,53,0.00,,,0.00,PyWeather,2013-02-06 00:51:00,
2013-02-05 14:52:00,80.0,61.5,29.88,NE,49,7.0,-999.0,53,0.00,,,0.00,PyWeather,2013-02-06 00:52:00,
2013-02-05 14:53:00,79.2,61.3,29.88,NE,34,6.0,19.0,54,0.00,,,0.00,PyWeather,2013-02-06 00:53:00,
2013-02-05 14:55:00,80.1,61.0,29.88,East,84,8.0,17.0,52,0.00,,,0.00,PyWeather,2013-02-06 00:55:00,
2013-02-05 14:57:00,80.1,61.6,29.88,ENE,69,8.0,17.0,53,0.00,,,0.00,PyWeather,2013-02-06 00:57:00,
2013-02-05 14:58:00,79.2,61.3,29.88,NNW,327,6.0,19.0,54,0.00,,,0.00,PyWeather,2013-02-06 00:58:00,
2013-02-05 14:59:00,80.1,61.6,29.88,East,95,8.0,17.0,53,0.00,,,0.00,PyWeather,2013-02-06 00:59:00,
2013-02-05 15:00:00,80.1,61.6,29.88,NNE,30,8.0,17.0,53,0.00,,,0.00,PyWeather,2013-02-06 01:00:00,
2013-02-05 15:01:00,80.2,62.2,29.88,NE,38,8.0,17.0,54,0.00,,,0.00,PyWeather,2013-02-06 01:01:00,
2013-02-05 15:02:00,80.2,61.7,29.88,NNE,32,8.0,17.0,53,0.00,,,0.00,PyWeather,2013-02-06 01:02:00,
2013-02-05 15:03:00,79.6,61.7,29.88,ENE,60,7.0,-999.0,54,0.00,,,0.00,PyWeather,2013-02-06 01:03:00,
2013-02-05 15:04:00,80.2,61.1,29.88,NNE,18,8.0,17.0,52,0.00,,,0.00,PyWeather,2013-02-06 01:04:00,
2013-02-05 15:08:00,80.1,61.0,29.88,ENE,71,8.0,-999.0,52,0.00,,,0.00,PyWeather,2013-02-06 01:08:00,
2013-02-05 15:11:00,80.2,61.7,29.88,NE,45,10.0,17.0,53,0.00,,,0.00,PyWeather,2013-02-06 01:11:00,
2013-02-05 15:13:00,80.2,61.1,29.88,ENE,61,8.0,17.0,52,0.00,,,0.00,PyWeather,2013-02-06 01:13:00,
2013-02-05 15:18:00,80.3,61.2,29.88,NE,55,8.0,17.0,52,0.00,,,0.00,PyWeather,2013-02-06 01:18:00,
2013-02-05 15:23:00,80.4,61.9,29.88,NNE,28,9.0,17.0,53,0.00,,,0.00,PyWeather,2013-02-06 01:23:00,
2013-02-05 15:29:00,80.1,62.7,29.88,ENE,59,9.0,17.0,55,0.00,,,0.00,PyWeather,2013-02-06 01:29:00,
2013-02-05 15:34:00,80.3,61.2,29.88,NE,50,11.0,17.0,52,0.00,,,0.00,PyWeather,2013-02-06 01:34:00,
2013-02-05 15:39:00,79.6,61.1,29.88,ENE,66,12.0,17.0,53,0.00,,,0.00,PyWeather,2013-02-06 01:39:00,
2013-02-05 15:44:00,79.4,61.5,29.88,East,84,12.0,19.0,54,0.00,,,0.00,PyWeather,2013-02-06 01:44:00,
2013-02-05 15:49:00,79.4,61.5,29.88,ENE,73,12.0,19.0,54,0.00,,,0.00,PyWeather,2013-02-06 01:49:00,
2013-02-05 15:54:00,79.4,60.9,29.88,ENE,59,12.0,19.0,53,0.00,,,0.00,PyWeather,2013-02-06 01:54:00,
2013-02-05 15:59:00,79.4,62.5,29.88,North,10,12.0,19.0,56,0.00,,,0.00,PyWeather,2013-02-06 01:59:00,
2013-02-05 16:04:00,79.3,62.4,29.89,ENE,59,14.0,19.0,56,0.00,,,0.00,PyWeather,2013-02-06 02:04:00,
2013-02-05 16:09:00,78.5,62.7,29.89,ENE,67,16.0,24.0,58,0.00,,,0.00,PyWeather,2013-02-06 02:09:00,
2013-02-05 16:10:00,77.7,62.4,29.89,NE,38,16.0,26.0,59,0.00,,,0.00,PyWeather,2013-02-06 02:10:00,
2013-02-05 16:11:00,77.7,62.4,29.89,NE,49,16.0,26.0,59,0.00,,,0.00,PyWeather,2013-02-06 02:11:00,
2013-02-05 16:12:00,77.8,62.5,29.89,NE,37,16.0,26.0,59,0.00,,,0.00,PyWeather,2013-02-06 02:12:00,
2013-02-05 16:13:00,77.9,62.6,29.89,ENE,60,16.0,26.0,59,0.00,,,0.00,PyWeather,2013-02-06 02:13:00,
2013-02-05 16:14:00,77.7,62.9,29.89,NNE,32,15.0,24.0,60,0.00,,,0.00,PyWeather,2013-02-06 02:14:00,
2013-02-05 16:15:00,78.0,62.2,29.89,NE,40,16.0,26.0,58,0.00,,,0.00,PyWeather,2013-02-06 02:15:00,
2013-02-05 16:16:00,78.0,62.2,29.89,NE,35,15.0,26.0,58,0.00,,,0.00,PyWeather,2013-02-06 02:16:00,
2013-02-05 16:17:00,78.0,62.2,29.89,NE,55,15.0,26.0,58,0.00,,,0.00,PyWeather,2013-02-06 02:17:00,
2013-02-05 16:18:00,78.0,62.7,29.89,NE,38,15.0,26.0,59,0.00,,,0.00,PyWeather,2013-02-06 02:18:00,
2013-02-05 16:19:00,77.6,62.3,29.89,NE,44,16.0,26.0,59,0.00,,,0.00,PyWeather,2013-02-06 02:19:00,
2013-02-05 16:20:00,78.1,62.3,29.89,NE,45,15.0,26.0,58,0.00,,,0.00,PyWeather,2013-02-06 02:20:00,
2013-02-05 16:22:00,78.0,62.2,29.89,NNE,29,15.0,26.0,58,0.00,,,0.00,PyWeather,2013-02-06 02:22:00,
2013-02-05 16:23:00,77.9,62.1,29.89,NE,43,14.0,26.0,58,0.00,,,0.00,PyWeather,2013-02-06 02:23:00,
2013-02-05 16:24:00,77.8,62.0,29.89,NE,42,14.0,26.0,58,0.00,,,0.00,PyWeather,2013-02-06 02:24:00,
2013-02-05 16:25:00,77.7,62.4,29.89,NE,51,16.0,26.0,59,0.00,,,0.00,PyWeather,2013-02-06 02:25:00,
2013-02-05 16:26:00,77.7,61.5,29.89,North,11,13.0,23.0,57,0.00,,,0.00,PyWeather,2013-02-06 02:26:00,
2013-02-05 16:27:00,77.6,61.4,29.90,NNE,32,13.0,23.0,57,0.00,,,0.00,PyWeather,2013-02-06 02:27:00,
2013-02-05 16:28:00,77.5,61.8,29.89,NNE,24,12.0,23.0,58,0.00,,,0.00,PyWeather,2013-02-06 02:28:00,
2013-02-05 16:29:00,77.4,61.2,29.89,NE,37,12.0,23.0,57,0.00,,,0.00,PyWeather,2013-02-06 02:29:00,
2013-02-05 16:30:00,78.0,62.2,29.89,NE,34,15.0,26.0,58,0.00,,,0.00,PyWeather,2013-02-06 02:30:00,
2013-02-05 16:31:00,77.1,60.9,29.89,NNE,15,12.0,23.0,57,0.00,,,0.00,PyWeather,2013-02-06 02:31:00,
2013-02-05 16:35:00,78.1,62.3,29.89,ENE,71,15.0,26.0,58,0.00,,,0.00,PyWeather,2013-02-06 02:35:00,
2013-02-05 16:40:00,77.7,61.5,29.89,NNE,29,13.0,23.0,57,0.00,,,0.00,PyWeather,2013-02-06 02:40:00,
2013-02-05 16:42:00,77.1,60.9,29.90,NNE,19,15.0,-999.0,57,0.00,,,0.00,PyWeather,2013-02-06 02:42:00,
2013-02-05 16:44:00,77.1,61.4,29.90,NE,42,16.0,23.0,58,0.00,,,0.00,PyWeather,2013-02-06 02:44:00,
2013-02-05 16:45:00,77.1,60.9,29.89,NNE,30,12.0,23.0,57,0.00,,,0.00,PyWeather,2013-02-06 02:45:00,
2013-02-05 16:48:00,76.8,61.6,29.90,NNE,22,16.0,23.0,59,0.00,,,0.00,PyWeather,2013-02-06 02:48:00,
2013-02-05 16:49:00,76.7,61.5,29.90,NE,35,17.0,23.0,59,0.00,,,0.00,PyWeather,2013-02-06 02:49:00,
2013-02-05 16:50:00,77.0,60.8,29.89,NE,40,13.0,-999.0,57,0.00,,,0.00,PyWeather,2013-02-06 02:50:00,
2013-02-05 16:51:00,76.6,61.9,29.90,North,11,17.0,23.0,60,0.00,,,0.00,PyWeather,2013-02-06 02:51:00,
2013-02-05 16:52:00,76.5,62.3,29.90,NE,43,16.0,23.0,61,0.00,,,0.00,PyWeather,2013-02-06 02:52:00,
2013-02-05 16:53:00,76.4,62.2,29.90,NNE,22,16.0,23.0,61,0.00,,,0.00,PyWeather,2013-02-06 02:53:00,
2013-02-05 16:54:00,76.3,62.1,29.90,NNE,25,16.0,23.0,61,0.00,,,0.00,PyWeather,2013-02-06 02:54:00,
2013-02-05 16:55:00,76.2,62.0,29.90,NNE,22,16.0,24.0,61,0.00,,,0.00,PyWeather,2013-02-06 02:55:00,
2013-02-05 16:56:00,77.2,60.5,29.90,NE,45,15.0,-999.0,56,0.00,,,0.00,PyWeather,2013-02-06 02:56:00,
2013-02-05 16:57:00,76.0,62.3,29.90,NE,53,16.0,24.0,62,0.00,,,0.00,PyWeather,2013-02-06 02:57:00,
2013-02-05 16:58:00,76.0,62.3,29.90,NE,42,16.0,24.0,62,0.00,,,0.00,PyWeather,2013-02-06 02:58:00,
2013-02-05 16:59:00,76.0,62.3,29.90,NNE,32,16.0,24.0,62,0.00,,,0.00,PyWeather,2013-02-06 02:59:00,
2013-02-05 17:00:00,76.0,62.3,29.90,NE,36,15.0,24.0,62,0.00,,,0.00,PyWeather,2013-02-06 03:00:00,
2013-02-05 17:01:00,77.0,61.8,29.90,NE,36,16.0,23.0,59,0.00,,,0.00,PyWeather,2013-02-06 03:01:00,
2013-02-05 17:02:00,75.9,61.7,29.90,NNE,30,15.0,24.0,61,0.00,,,0.00,PyWeather,2013-02-06 03:02:00,
2013-02-05 17:03:00,75.9,61.7,29.90,NE,45,15.0,24.0,61,0.00,,,0.00,PyWeather,2013-02-06 03:03:00,
2013-02-05 17:04:00,75.9,61.7,29.89,ENE,65,15.0,24.0,61,0.00,,,0.00,PyWeather,2013-02-06 03:04:00,
2013-02-05 17:05:00,75.9,61.7,29.90,NE,47,14.0,22.0,61,0.00,,,0.00,PyWeather,2013-02-06 03:05:00,
2013-02-05 17:06:00,76.5,62.3,29.90,NE,34,16.0,23.0,61,0.00,,,0.00,PyWeather,2013-02-06 03:06:00,
2013-02-05 17:07:00,76.0,61.8,29.90,NE,56,14.0,22.0,61,0.00,,,0.00,PyWeather,2013-02-06 03:07:00,
2013-02-05 17:08:00,76.0,61.8,29.90,NE,46,14.0,22.0,61,0.00,,,0.00,PyWeather,2013-02-06 03:08:00,
2013-02-05 17:09:00,76.0,61.8,29.90,ENE,66,15.0,22.0,61,0.00,,,0.00,PyWeather,2013-02-06 03:09:00,
2013-02-05 17:10:00,76.0,61.3,29.90,NE,54,15.0,22.0,60,0.00,,,0.00,PyWeather,2013-02-06 03:10:00,
2013-02-05 17:11:00,76.0,62.3,29.90,NE,44,16.0,24.0,62,0.00,,,0.00,PyWeather,2013-02-06 03:11:00,
2013-02-05 17:12:00,76.0,61.3,29.90,ENE,64,15.0,22.0,60,0.00,,,0.00,PyWeather,2013-02-06 03:12:00,
2013-02-05 17:13:00,75.9,61.2,29.90,ENE,65,15.0,22.0,60,0.00,,,0.00,PyWeather,2013-02-06 03:13:00,
2013-02-05 17:14:00,75.8,61.6,29.90,NE,37,15.0,23.0,61,0.00,,,0.00,PyWeather,2013-02-06 03:14:00,
2013-02-05 17:15:00,75.7,61.5,29.90,NE,50,15.0,23.0,61,0.00,,,0.00,PyWeather,2013-02-06 03:15:00,
2013-02-05 17:16:00,75.7,61.5,29.90,NE,51,15.0,23.0,61,0.00,,,0.00,PyWeather,2013-02-06 03:16:00,
2013-02-05 17:17:00,75.6,61.9,29.90,NE,47,15.0,23.0,62,0.00,,,0.00,PyWeather,2013-02-06 03:17:00,
2013-02-05 17:18:00,75.9,61.7,29.89,ENE,65,15.0,24.0,61,0.00,,,0.00,PyWeather,2013-02-06 03:18:00,
2013-02-05 17:23:00,76.0,61.8,29.90,NE,53,15.0,22.0,61,0.00,,,0.00,PyWeather,2013-02-06 03:23:00,
2013-02-05 17:28:00,75.8,61.6,29.90,NE,40,15.0,22.0,61,0.00,,,0.00,PyWeather,2013-02-06 03:28:00,
2013-02-05 17:33:00,75.4,61.7,29.90,NE,36,15.0,23.0,62,0.00,,,0.00,PyWeather,2013-02-06 03:33:00,
2013-02-05 17:38:00,75.1,60.9,29.90,NE,46,14.0,23.0,61,0.00,,,0.00,PyWeather,2013-02-06 03:38:00,
2013-02-05 17:43:00,74.6,61.4,29.91,NE,40,14.0,21.0,63,0.00,,,0.00,PyWeather,2013-02-06 03:43:00,
2013-02-05 17:48:00,74.1,61.4,29.91,ENE,59,15.0,21.0,64,0.00,,,0.00,PyWeather,2013-02-06 03:48:00,
2013-02-05 17:53:00,73.8,61.5,29.92,NNE,25,13.0,21.0,65,0.00,,,0.00,PyWeather,2013-02-06 03:53:00,
2013-02-05 17:59:00,73.3,63.1,29.92,NE,50,12.0,20.0,70,0.00,,,0.00,PyWeather,2013-02-06 03:59:00,
2013-02-05 18:04:00,72.6,63.2,29.92,NNE,26,13.0,20.0,72,0.00,,,0.00,PyWeather,2013-02-06 04:04:00,
2013-02-05 18:09:00,72.3,62.9,29.92,NNE,32,14.0,-999.0,72,0.00,,,0.00,PyWeather,2013-02-06 04:09:00,
2013-02-05 18:14:00,72.2,62.5,29.92,NE,46,13.0,-999.0,71,0.00,,,0.00,PyWeather,2013-02-06 04:14:00,
2013-02-05 18:19:00,72.1,61.6,29.93,ENE,76,12.0,-999.0,69,0.00,,,0.00,PyWeather,2013-02-06 04:19:00,
2013-02-05 18:24:00,72.1,61.6,29.93,NE,39,13.0,-999.0,69,0.00,,,0.00,PyWeather,2013-02-06 04:24:00,
2013-02-05 18:29:00,71.9,61.4,29.93,ENE,74,14.0,21.0,69,0.00,,,0.00,PyWeather,2013-02-06 04:29:00,
2013-02-05 18:35:00,71.7,61.2,29.93,ENE,70,13.0,21.0,69,0.00,,,0.00,PyWeather,2013-02-06 04:35:00,
2013-02-05 18:40:00,71.7,60.8,29.93,NE,48,13.0,21.0,68,0.00,,,0.00,PyWeather,2013-02-06 04:40:00,
2013-02-05 18:45:00,71.6,61.5,29.93,NE,34,13.0,21.0,70,0.00,,,0.00,PyWeather,2013-02-06 04:45:00,
2013-02-05 18:46:00,70.9,62.0,29.94,NE,34,9.0,18.0,73,0.00,,,0.00,PyWeather,2013-02-06 04:46:00,
2013-02-05 18:47:00,70.8,61.9,29.94,NE,35,8.0,18.0,73,0.00,,,0.00,PyWeather,2013-02-06 04:47:00,
2013-02-05 18:48:00,70.8,61.9,29.94,NE,34,7.0,18.0,73,0.00,,,0.00,PyWeather,2013-02-06 04:48:00,
2013-02-05 18:49:00,70.8,61.9,29.94,NE,34,6.0,18.0,73,0.00,,,0.00,PyWeather,2013-02-06 04:49:00,
2013-02-05 18:50:00,71.3,61.6,29.94,NE,49,13.0,21.0,71,0.00,,,0.00,PyWeather,2013-02-06 04:50:00,
2013-02-05 18:51:00,70.7,61.8,29.94,NE,34,5.0,18.0,73,0.00,,,0.00,PyWeather,2013-02-06 04:51:00,
2013-02-05 18:52:00,70.7,61.8,29.94,NNE,33,4.0,18.0,73,0.00,,,0.00,PyWeather,2013-02-06 04:52:00,
2013-02-05 18:53:00,70.6,61.7,29.94,NE,34,4.0,18.0,73,0.00,,,0.00,PyWeather,2013-02-06 04:53:00,
2013-02-05 18:54:00,70.5,61.6,29.94,NE,34,4.0,18.0,73,0.00,,,0.00,PyWeather,2013-02-06 04:54:00,
2013-02-05 18:55:00,71.1,61.8,29.94,NE,41,12.0,21.0,72,0.00,,,0.00,PyWeather,2013-02-06 04:55:00,
2013-02-05 18:56:00,70.3,61.4,29.94,NNE,29,3.0,-999.0,73,0.00,,,0.00,PyWeather,2013-02-06 04:56:00,
2013-02-05 18:57:00,70.2,61.3,29.94,NNE,28,3.0,-999.0,73,0.00,,,0.00,PyWeather,2013-02-06 04:57:00,
2013-02-05 18:58:00,70.1,61.2,29.94,NNE,28,3.0,-999.0,73,0.00,,,0.00,PyWeather,2013-02-06 04:58:00,
2013-02-05 18:59:00,70.0,61.1,29.94,NNE,27,3.0,-999.0,73,0.00,,,0.00,PyWeather,2013-02-06 04:59:00,
2013-02-05 19:00:00,70.0,61.1,29.94,NNE,28,3.0,-999.0,73,0.00,,,0.00,PyWeather,2013-02-06 05:00:00,
2013-02-05 19:01:00,69.9,61.4,29.95,NE,42,4.0,-999.0,74,0.00,,,0.00,PyWeather,2013-02-06 05:01:00,
2013-02-05 19:02:00,69.8,61.3,29.95,NE,48,4.0,-999.0,74,0.00,,,0.00,PyWeather,2013-02-06 05:02:00,
2013-02-05 19:03:00,69.8,61.3,29.95,ENE,61,5.0,-999.0,74,0.00,,,0.00,PyWeather,2013-02-06 05:03:00,
2013-02-05 19:04:00,69.8,61.3,29.95,ENE,59,5.0,-999.0,74,0.00,,,0.00,PyWeather,2013-02-06 05:04:00,
2013-02-05 19:05:00,69.7,61.2,29.95,ENE,59,6.0,14.0,74,0.00,,,0.00,PyWeather,2013-02-06 05:05:00,
2013-02-05 19:06:00,69.7,60.8,29.95,ENE,76,6.0,14.0,73,0.00,,,0.00,PyWeather,2013-02-06 05:06:00,
2013-02-05 19:07:00,69.7,60.4,29.95,ENE,68,7.0,14.0,72,0.00,,,0.00,PyWeather,2013-02-06 05:07:00,
2013-02-05 19:08:00,69.8,60.5,29.95,East,85,7.0,14.0,72,0.00,,,0.00,PyWeather,2013-02-06 05:08:00,
2013-02-05 19:09:00,69.9,60.2,29.95,NE,51,7.0,14.0,71,0.00,,,0.00,PyWeather,2013-02-06 05:09:00,
2013-02-05 19:10:00,69.9,60.2,29.96,ENE,62,8.0,14.0,71,0.00,,,0.00,PyWeather,2013-02-06 05:10:00,
2013-02-05 19:11:00,70.0,59.9,29.96,NE,53,8.0,14.0,70,0.00,,,0.00,PyWeather,2013-02-06 05:11:00,
2013-02-05 19:12:00,70.1,60.0,29.96,ENE,69,8.0,14.0,70,0.00,,,0.00,PyWeather,2013-02-06 05:12:00,
2013-02-05 19:18:00,69.8,61.3,29.95,ENE,59,5.0,-999.0,74,0.00,,,0.00,PyWeather,2013-02-06 05:18:00,
2013-02-05 19:23:00,69.8,60.1,29.95,ENE,75,7.0,14.0,71,0.00,,,0.00,PyWeather,2013-02-06 05:23:00,
2013-02-05 19:27:00,71.5,61.0,29.96,NE,54,10.0,18.0,69,0.00,,,0.00,PyWeather,2013-02-06 05:27:00,
2013-02-05 19:28:00,70.2,60.1,29.96,ENE,60,8.0,14.0,70,0.00,,,0.00,PyWeather,2013-02-06 05:28:00,
2013-02-05 19:30:00,71.5,61.0,29.96,NE,36,9.0,18.0,69,0.00,,,0.00,PyWeather,2013-02-06 05:30:00,
2013-02-05 19:31:00,71.5,61.0,29.96,NNE,21,9.0,18.0,69,0.00,,,0.00,PyWeather,2013-02-06 05:31:00,
2013-02-05 19:32:00,71.5,61.0,29.96,NNE,28,9.0,18.0,69,0.00,,,0.00,PyWeather,2013-02-06 05:32:00,
2013-02-05 19:33:00,70.8,60.3,29.96,ENE,63,9.0,15.0,69,0.00,,,0.00,PyWeather,2013-02-06 05:33:00,
2013-02-05 19:35:00,71.3,61.2,29.96,NE,34,9.0,16.0,70,0.00,,,0.00,PyWeather,2013-02-06 05:35:00,
2013-02-05 19:36:00,71.3,61.2,29.96,NNE,28,9.0,16.0,70,0.00,,,0.00,PyWeather,2013-02-06 05:36:00,
2013-02-05 19:37:00,71.3,61.2,29.96,NNE,22,9.0,16.0,70,0.00,,,0.00,PyWeather,2013-02-06 05:37:00,
2013-02-05 19:38:00,71.3,60.4,29.96,ENE,72,11.0,15.0,68,0.00,,,0.00,PyWeather,2013-02-06 05:38:00,
2013-02-05 19:39:00,71.1,61.0,29.96,NNE,25,8.0,16.0,70,0.00,,,0.00,PyWeather,2013-02-06 05:39:00,
2013-02-05 19:40:00,71.0,61.3,29.96,NE,34,8.0,16.0,71,0.00,,,0.00,PyWeather,2013-02-06 05:40:00,
2013-02-05 19:41:00,70.9,61.2,29.96,NNE,19,7.0,16.0,71,0.00,,,0.00,PyWeather,2013-02-06 05:41:00,
2013-02-05 19:42:00,70.8,61.1,29.97,NNE,19,7.0,16.0,71,0.00,,,0.00,PyWeather,2013-02-06 05:42:00,
2013-02-05 19:43:00,71.5,61.0,29.96,NE,39,9.0,18.0,69,0.00,,,0.00,PyWeather,2013-02-06 05:43:00,
2013-02-05 19:44:00,70.6,61.3,29.97,North,5,7.0,16.0,72,0.00,,,0.00,PyWeather,2013-02-06 05:44:00,
2013-02-05 19:45:00,70.4,61.1,29.97,North,9,6.0,-999.0,72,0.00,,,0.00,PyWeather,2013-02-06 05:45:00,
2013-02-05 19:46:00,70.3,61.0,29.97,North,9,6.0,-999.0,72,0.00,,,0.00,PyWeather,2013-02-06 05:46:00,
2013-02-05 19:47:00,70.2,60.9,29.97,North,5,5.0,-999.0,72,0.00,,,0.00,PyWeather,2013-02-06 05:47:00,
2013-02-05 19:48:00,71.5,61.0,29.96,NE,42,9.0,18.0,69,0.00,,,0.00,PyWeather,2013-02-06 05:48:00,
2013-02-05 19:49:00,69.9,61.0,29.97,NNE,16,5.0,-999.0,73,0.00,,,0.00,PyWeather,2013-02-06 05:49:00,
2013-02-05 19:51:00,69.7,60.8,29.97,NNE,24,5.0,-999.0,73,0.00,,,0.00,PyWeather,2013-02-06 05:51:00,
2013-02-05 19:54:00,71.0,60.9,29.96,NNE,26,8.0,16.0,70,0.00,,,0.00,PyWeather,2013-02-06 05:54:00,
2013-02-05 19:57:00,69.3,60.8,29.97,ENE,59,5.0,-999.0,74,0.00,,,0.00,PyWeather,2013-02-06 05:57:00,
2013-02-05 19:58:00,69.3,60.8,29.97,NNE,33,5.0,-999.0,74,0.00,,,0.00,PyWeather,2013-02-06 05:58:00,
2013-02-05 19:59:00,70.5,61.2,29.97,North,5,6.0,-999.0,72,0.00,,,0.00,PyWeather,2013-02-06 05:59:00,
2013-02-05 20:00:00,69.4,60.9,29.97,ENE,65,5.0,-999.0,74,0.00,,,0.00,PyWeather,2013-02-06 06:00:00,
2013-02-05 20:01:00,69.4,60.9,29.97,ENE,59,5.0,-999.0,74,0.00,,,0.00,PyWeather,2013-02-06 06:01:00,
2013-02-05 20:02:00,69.4,60.9,29.97,ENE,61,5.0,-999.0,74,0.00,,,0.00,PyWeather,2013-02-06 06:02:00,
2013-02-05 20:04:00,69.9,61.0,29.97,NNE,26,5.0,-999.0,73,0.00,,,0.00,PyWeather,2013-02-06 06:04:00,
2013-02-05 20:05:00,69.5,60.6,29.98,NE,45,4.0,-999.0,73,0.00,,,0.00,PyWeather,2013-02-06 06:05:00,
2013-02-05 20:06:00,69.6,60.7,29.98,NE,47,4.0,-999.0,73,0.00,,,0.00,PyWeather,2013-02-06 06:06:00,
2013-02-05 20:07:00,69.8,60.5,29.98,NE,38,5.0,-999.0,72,0.00,,,0.00,PyWeather,2013-02-06 06:07:00,
2013-02-05 20:08:00,69.9,60.2,29.98,NE,49,5.0,-999.0,71,0.00,,,0.00,PyWeather,2013-02-06 06:08:00,
2013-02-05 20:09:00,69.5,61.0,29.97,ENE,61,5.0,-999.0,74,0.00,,,0.00,PyWeather,2013-02-06 06:09:00,
2013-02-05 20:10:00,70.2,60.1,29.98,NNE,30,5.0,-999.0,70,0.00,,,0.00,PyWeather,2013-02-06 06:10:00,
2013-02-05 20:12:00,70.3,60.2,29.98,NNE,25,7.0,-999.0,70,0.00,,,0.00,PyWeather,2013-02-06 06:12:00,
2013-02-05 20:14:00,69.3,60.8,29.97,ENE,63,5.0,-999.0,74,0.00,,,0.00,PyWeather,2013-02-06 06:14:00,
2013-02-05 20:16:00,70.0,60.3,29.99,NNE,13,8.0,-999.0,71,0.00,,,0.00,PyWeather,2013-02-06 06:16:00,
2013-02-05 20:17:00,70.0,60.3,29.99,North,10,8.0,-999.0,71,0.00,,,0.00,PyWeather,2013-02-06 06:17:00,
2013-02-05 20:18:00,69.8,60.5,29.99,North,11,8.0,-999.0,72,0.00,,,0.00,PyWeather,2013-02-06 06:18:00,
2013-02-05 20:19:00,69.5,60.6,29.98,NE,47,4.0,-999.0,73,0.00,,,0.00,PyWeather,2013-02-06 06:19:00,
2013-02-05 20:20:00,69.7,60.4,29.99,North,5,7.0,-999.0,72,0.00,,,0.00,PyWeather,2013-02-06 06:20:00,
2013-02-05 20:21:00,69.7,60.8,29.99,North,360,7.0,-999.0,73,0.00,,,0.00,PyWeather,2013-02-06 06:21:00,
2013-02-05 20:22:00,69.5,60.6,29.99,North,9,7.0,-999.0,73,0.00,,,0.00,PyWeather,2013-02-06 06:22:00,
2013-02-05 20:23:00,69.5,60.6,29.99,North,360,7.0,-999.0,73,0.00,,,0.00,PyWeather,2013-02-06 06:23:00,
2013-02-05 20:24:00,70.1,60.0,29.98,NNE,32,5.0,-999.0,70,0.00,,,0.00,PyWeather,2013-02-06 06:24:00,
2013-02-05 20:25:00,69.3,60.8,29.99,North,5,7.0,-999.0,74,0.00,,,0.00,PyWeather,2013-02-06 06:25:00,
2013-02-05 20:26:00,69.3,60.8,29.99,NNE,19,7.0,-999.0,74,0.00,,,0.00,PyWeather,2013-02-06 06:26:00,
2013-02-05 20:29:00,70.2,60.1,29.98,North,11,8.0,-999.0,70,0.00,,,0.00,PyWeather,2013-02-06 06:29:00,
2013-02-05 20:30:00,68.9,60.8,29.99,North,9,7.0,-999.0,75,0.00,,,0.00,PyWeather,2013-02-06 06:30:00,
2013-02-05 20:31:00,68.8,60.3,29.99,NNE,19,7.0,-999.0,74,0.00,,,0.00,PyWeather,2013-02-06 06:31:00,
2013-02-05 20:32:00,68.7,60.2,29.99,NNE,13,7.0,-999.0,74,0.00,,,0.00,PyWeather,2013-02-06 06:32:00,
2013-02-05 20:33:00,68.6,60.1,29.99,NNE,21,7.0,-999.0,74,0.00,,,0.00,PyWeather,2013-02-06 06:33:00,
2013-02-05 20:34:00,68.4,59.9,29.99,North,11,6.0,-999.0,74,0.00,,,0.00,PyWeather,2013-02-06 06:34:00,
2013-02-05 20:35:00,69.7,60.8,29.99,North,11,7.0,-999.0,73,0.00,,,0.00,PyWeather,2013-02-06 06:35:00,
2013-02-05 20:37:00,68.2,59.7,29.99,NNE,28,6.0,-999.0,74,0.00,,,0.00,PyWeather,2013-02-06 06:37:00,
2013-02-05 20:39:00,68.0,59.5,29.99,NNE,19,6.0,-999.0,74,0.00,,,0.00,PyWeather,2013-02-06 06:39:00,
2013-02-05 20:40:00,69.3,60.8,29.99,NNE,15,7.0,-999.0,74,0.00,,,0.00,PyWeather,2013-02-06 06:40:00,
2013-02-05 20:45:00,68.9,60.4,29.99,North,5,7.0,-999.0,74,0.00,,,0.00,PyWeather,2013-02-06 06:45:00,
2013-02-05 20:50:00,68.3,60.2,29.99,NNE,33,6.0,-999.0,75,0.00,,,0.00,PyWeather,2013-02-06 06:50:00,
2013-02-05 20:55:00,68.1,60.0,29.99,NNE,25,6.0,-999.0,75,0.00,,,0.00,PyWeather,2013-02-06 06:55:00,
2013-02-05 21:00:00,68.8,61.0,29.99,North,351,7.0,-999.0,76,0.00,,,0.00,PyWeather,2013-02-06 07:00:00,
2013-02-05 21:01:00,68.3,60.6,29.99,NNE,30,10.0,17.0,76,0.00,,,0.00,PyWeather,2013-02-06 07:01:00,
2013-02-05 21:02:00,68.3,60.6,29.99,North,5,10.0,17.0,76,0.00,,,0.00,PyWeather,2013-02-06 07:02:00,
2013-02-05 21:03:00,68.4,61.0,29.99,North,11,9.0,17.0,77,0.00,,,0.00,PyWeather,2013-02-06 07:03:00,
2013-02-05 21:04:00,68.4,61.0,29.99,North,9,9.0,18.0,77,0.00,,,0.00,PyWeather,2013-02-06 07:04:00,
2013-02-05 21:05:00,69.1,61.7,29.99,NNW,340,9.0,-999.0,77,0.00,,,0.00,PyWeather,2013-02-06 07:05:00,
2013-02-05 21:06:00,68.3,60.9,29.99,North,5,8.0,18.0,77,0.00,,,0.00,PyWeather,2013-02-06 07:06:00,
2013-02-05 21:08:00,68.3,60.9,29.99,North,9,7.0,18.0,77,0.00,,,0.00,PyWeather,2013-02-06 07:08:00,
2013-02-05 21:09:00,68.4,61.0,29.99,North,351,7.0,18.0,77,0.00,,,0.00,PyWeather,2013-02-06 07:09:00,
2013-02-05 21:10:00,69.1,61.7,29.99,NNE,17,11.0,17.0,77,0.00,,,0.00,PyWeather,2013-02-06 07:10:00,
2013-02-05 21:11:00,68.3,60.9,29.99,North,5,6.0,18.0,77,0.00,,,0.00,PyWeather,2013-02-06 07:11:00,
2013-02-05 21:12:00,68.3,61.3,29.99,North,355,6.0,18.0,78,0.00,,,0.00,PyWeather,2013-02-06 07:12:00,
2013-02-05 21:13:00,68.3,61.3,29.99,NNE,15,6.0,18.0,78,0.00,,,0.00,PyWeather,2013-02-06 07:13:00,
2013-02-05 21:14:00,68.2,61.2,29.99,North,5,7.0,-999.0,78,0.00,,,0.00,PyWeather,2013-02-06 07:14:00,
2013-02-05 21:15:00,68.3,60.6,29.99,NNE,14,10.0,17.0,76,0.00,,,0.00,PyWeather,2013-02-06 07:15:00,
2013-02-05 21:16:00,68.2,61.5,29.99,North,360,7.0,-999.0,79,0.00,,,0.00,PyWeather,2013-02-06 07:16:00,
2013-02-05 21:17:00,68.2,61.5,29.99,North,5,7.0,-999.0,79,0.00,,,0.00,PyWeather,2013-02-06 07:17:00,
2013-02-05 21:18:00,68.2,61.5,30.00,North,355,8.0,-999.0,79,0.00,,,0.00,PyWeather,2013-02-06 07:18:00,
2013-02-05 21:19:00,68.1,61.4,30.00,North,355,8.0,-999.0,79,0.00,,,0.00,PyWeather,2013-02-06 07:19:00,
2013-02-05 21:20:00,68.1,61.8,30.00,North,355,8.0,-999.0,80,0.00,,,0.00,PyWeather,2013-02-06 07:20:00,
2013-02-05 21:21:00,68.3,60.9,29.99,North,9,7.0,18.0,77,0.00,,,0.00,PyWeather,2013-02-06 07:21:00,
2013-02-05 21:22:00,68.1,61.8,30.00,NNE,30,8.0,-999.0,80,0.00,,,0.00,PyWeather,2013-02-06 07:22:00,
2013-02-05 21:23:00,68.1,61.8,30.00,North,355,8.0,-999.0,80,0.00,,,0.00,PyWeather,2013-02-06 07:23:00,
2013-02-05 21:25:00,68.2,62.5,30.00,North,10,9.0,-999.0,82,0.00,,,0.00,PyWeather,2013-02-06 07:25:00,
2013-02-05 21:26:00,68.3,61.3,29.99,North,9,6.0,18.0,78,0.00,,,0.00,PyWeather,2013-02-06 07:26:00,
2013-02-05 21:27:00,68.2,62.5,29.99,North,349,9.0,-999.0,82,0.00,,,0.00,PyWeather,2013-02-06 07:27:00,
2013-02-05 21:28:00,68.2,62.5,29.99,North,355,9.0,-999.0,82,0.00,,,0.00,PyWeather,2013-02-06 07:28:00,
2013-02-05 21:32:00,68.1,61.4,30.00,North,10,8.0,-999.0,79,0.00,,,0.00,PyWeather,2013-02-06 07:32:00,
2013-02-05 21:33:00,68.3,62.6,29.99,NNE,22,11.0,-999.0,82,0.00,,,0.00,PyWeather,2013-02-06 07:33:00,
2013-02-05 21:34:00,68.4,62.7,30.00,NNE,22,11.0,-999.0,82,0.00,,,0.00,PyWeather,2013-02-06 07:34:00,
2013-02-05 21:35:00,68.5,62.8,29.99,North,5,12.0,20.0,82,0.00,,,0.00,PyWeather,2013-02-06 07:35:00,
2013-02-05 21:36:00,68.5,62.8,29.99,North,9,12.0,20.0,82,0.00,,,0.00,PyWeather,2013-02-06 07:36:00,
2013-02-05 21:37:00,68.1,61.8,30.00,North,9,8.0,-999.0,80,0.00,,,0.00,PyWeather,2013-02-06 07:37:00,
2013-02-05 21:38:00,68.4,62.4,29.99,North,351,12.0,20.0,81,0.00,,,0.00,PyWeather,2013-02-06 07:38:00,
2013-02-05 21:39:00,68.4,62.4,29.99,NNE,31,12.0,20.0,81,0.00,,,0.00,PyWeather,2013-02-06 07:39:00,
2013-02-05 21:42:00,68.2,62.5,29.99,North,351,9.0,-999.0,82,0.00,,,0.00,PyWeather,2013-02-06 07:42:00,
2013-02-05 21:43:00,68.4,62.7,29.99,North,5,12.0,20.0,82,0.00,,,0.00,PyWeather,2013-02-06 07:43:00,
2013-02-05 21:44:00,68.5,62.8,29.99,North,360,12.0,20.0,82,0.00,,,0.00,PyWeather,2013-02-06 07:44:00,
2013-02-05 21:46:00,68.6,62.6,29.99,NNE,15,12.0,-999.0,81,0.00,,,0.00,PyWeather,2013-02-06 07:46:00,
2013-02-05 21:47:00,68.3,62.6,29.99,NE,40,11.0,-999.0,82,0.00,,,0.00,PyWeather,2013-02-06 07:47:00,
2013-02-05 21:48:00,68.6,62.6,29.99,North,9,11.0,-999.0,81,0.00,,,0.00,PyWeather,2013-02-06 07:48:00,
2013-02-05 21:49:00,68.5,62.5,29.99,NE,52,11.0,-999.0,81,0.00,,,0.00,PyWeather,2013-02-06 07:49:00,
2013-02-05 21:50:00,68.5,62.5,29.99,North,9,11.0,-999.0,81,0.00,,,0.00,PyWeather,2013-02-06 07:50:00,
2013-02-05 21:51:00,68.5,62.5,29.99,North,360,11.0,-999.0,81,0.00,,,0.00,PyWeather,2013-02-06 07:51:00,
2013-02-05 21:52:00,68.4,62.4,29.99,North,355,12.0,20.0,81,0.00,,,0.00,PyWeather,2013-02-06 07:52:00,
2013-02-05 21:53:00,68.4,62.4,29.99,NNW,345,10.0,-999.0,81,0.00,,,0.00,PyWeather,2013-02-06 07:53:00,
2013-02-05 21:54:00,68.4,62.4,29.99,North,5,9.0,-999.0,81,0.00,,,0.00,PyWeather,2013-02-06 07:54:00,
2013-02-05 21:55:00,68.4,62.4,29.99,North,360,9.0,-999.0,81,0.00,,,0.00,PyWeather,2013-02-06 07:55:00,
2013-02-05 21:56:00,68.4,62.7,29.99,North,360,9.0,-999.0,82,0.00,,,0.00,PyWeather,2013-02-06 07:56:00,
2013-02-05 21:57:00,68.5,62.8,29.99,North,360,12.0,20.0,82,0.00,,,0.00,PyWeather,2013-02-06 07:57:00,
2013-02-05 21:58:00,68.6,62.9,29.99,North,5,10.0,-999.0,82,0.00,,,0.00,PyWeather,2013-02-06 07:58:00,
2013-02-05 22:00:00,68.7,63.0,29.99,North,355,10.0,-999.0,82,0.00,,,0.00,PyWeather,2013-02-06 08:00:00,
2013-02-05 22:01:00,68.7,63.0,29.99,NNW,347,11.0,-999.0,82,0.00,,,0.00,PyWeather,2013-02-06 08:01:00,
2013-02-05 22:02:00,68.6,62.6,29.99,NNE,17,11.0,-999.0,81,0.00,,,0.00,PyWeather,2013-02-06 08:02:00,
2013-02-05 22:03:00,68.7,63.0,29.99,North,350,12.0,-999.0,82,0.00,,,0.00,PyWeather,2013-02-06 08:03:00,
2013-02-05 22:04:00,68.7,63.0,29.99,North,360,12.0,-999.0,82,0.00,,,0.00,PyWeather,2013-02-06 08:04:00,
2013-02-05 22:05:00,68.8,63.1,29.99,North,5,12.0,-999.0,82,0.00,,,0.00,PyWeather,2013-02-06 08:05:00,
2013-02-05 22:06:00,68.8,63.1,29.99,North,5,12.0,-999.0,82,0.00,,,0.00,PyWeather,2013-02-06 08:06:00,
2013-02-05 22:07:00,68.5,62.5,29.99,NNE,17,10.0,-999.0,81,0.00,,,0.00,PyWeather,2013-02-06 08:07:00,
2013-02-05 22:11:00,68.8,63.1,29.99,North,5,12.0,-999.0,82,0.00,,,0.00,PyWeather,2013-02-06 08:11:00,
2013-02-05 22:12:00,68.9,63.6,29.99,NNW,338,12.0,-999.0,83,0.00,,,0.00,PyWeather,2013-02-06 08:12:00,
2013-02-05 22:13:00,68.6,62.9,29.99,NNE,15,10.0,-999.0,82,0.00,,,0.00,PyWeather,2013-02-06 08:13:00,
2013-02-05 22:15:00,69.1,63.8,29.99,North,5,13.0,22.0,83,0.00,,,0.00,PyWeather,2013-02-06 08:15:00,
2013-02-05 22:18:00,68.7,63.0,29.99,NNW,348,12.0,-999.0,82,0.00,,,0.00,PyWeather,2013-02-06 08:18:00,
2013-02-05 22:23:00,68.7,63.0,29.99,North,355,11.0,-999.0,82,0.00,,,0.00,PyWeather,2013-02-06 08:23:00,
2013-02-05 22:28:00,69.0,63.7,29.99,North,360,13.0,-999.0,83,0.00,,,0.00,PyWeather,2013-02-06 08:28:00,
2013-02-05 22:33:00,69.4,64.1,29.99,NNW,344,15.0,22.0,83,0.00,,,0.00,PyWeather,2013-02-06 08:33:00,
2013-02-05 22:38:00,69.1,64.1,29.98,North,360,14.0,22.0,84,0.00,,,0.00,PyWeather,2013-02-06 08:38:00,
2013-02-05 22:43:00,68.8,64.1,29.98,North,9,12.0,22.0,85,0.00,,,0.00,PyWeather,2013-02-06 08:43:00,
2013-02-05 22:45:00,68.6,64.3,29.98,NNE,28,10.0,18.0,86,0.00,,,0.00,PyWeather,2013-02-06 08:45:00,
2013-02-05 22:46:00,68.5,64.2,29.98,NNE,13,11.0,18.0,86,0.00,,,0.00,PyWeather,2013-02-06 08:46:00,
2013-02-05 22:47:00,68.4,63.7,29.98,NNE,15,11.0,18.0,85,0.00,,,0.00,PyWeather,2013-02-06 08:47:00,
2013-02-05 22:48:00,68.6,63.9,29.98,North,9,11.0,22.0,85,0.00,,,0.00,PyWeather,2013-02-06 08:48:00,
2013-02-05 22:50:00,68.1,63.4,29.99,NNE,32,11.0,18.0,85,0.00,,,0.00,PyWeather,2013-02-06 08:50:00,
2013-02-05 22:51:00,68.1,63.4,29.99,NNE,30,11.0,18.0,85,0.00,,,0.00,PyWeather,2013-02-06 08:51:00,
2013-02-05 22:53:00,68.4,64.1,29.98,NNE,27,11.0,-999.0,86,0.00,,,0.00,PyWeather,2013-02-06 08:53:00,
2013-02-05 22:54:00,68.0,63.7,29.99,NNE,26,10.0,18.0,86,0.00,,,0.00,PyWeather,2013-02-06 08:54:00,
2013-02-05 22:55:00,68.0,63.7,29.99,NNE,26,10.0,18.0,86,0.00,,,0.00,PyWeather,2013-02-06 08:55:00,
2013-02-05 22:56:00,68.1,63.8,29.99,North,5,9.0,18.0,86,0.00,,,0.00,PyWeather,2013-02-06 08:56:00,
2013-02-05 22:57:00,68.1,63.8,29.99,NNE,21,9.0,18.0,86,0.00,,,0.00,PyWeather,2013-02-06 08:57:00,
2013-02-05 22:58:00,68.6,64.3,29.98,NNE,24,11.0,-999.0,86,0.00,,,0.00,PyWeather,2013-02-06 08:58:00,
2013-02-05 22:59:00,68.2,63.9,29.99,NNE,13,9.0,18.0,86,0.00,,,0.00,PyWeather,2013-02-06 08:59:00,
2013-02-05 23:00:00,68.3,64.0,29.99,North,351,8.0,18.0,86,0.00,,,0.00,PyWeather,2013-02-06 09:00:00,
2013-02-05 23:01:00,68.3,64.3,29.98,NNE,28,8.0,18.0,87,0.00,,,0.00,PyWeather,2013-02-06 09:01:00,
2013-02-05 23:02:00,68.4,64.4,29.98,NNE,32,8.0,18.0,87,0.00,,,0.00,PyWeather,2013-02-06 09:02:00,
2013-02-05 23:03:00,68.4,64.4,29.98,North,10,8.0,18.0,87,0.00,,,0.00,PyWeather,2013-02-06 09:03:00,
2013-02-05 23:04:00,68.4,64.4,29.98,North,10,9.0,18.0,87,0.00,,,0.00,PyWeather,2013-02-06 09:04:00,
2013-02-05 23:05:00,68.1,63.4,29.99,NE,36,11.0,18.0,85,0.00,,,0.00,PyWeather,2013-02-06 09:05:00,
2013-02-05 23:06:00,68.4,64.4,29.98,North,360,9.0,17.0,87,0.00,,,0.00,PyWeather,2013-02-06 09:06:00,
2013-02-05 23:07:00,68.4,64.4,29.98,NNE,17,9.0,17.0,87,0.00,,,0.00,PyWeather,2013-02-06 09:07:00,
2013-02-05 23:08:00,68.4,64.4,29.98,NNE,15,10.0,17.0,87,0.00,,,0.00,PyWeather,2013-02-06 09:08:00,
2013-02-05 23:09:00,68.4,64.4,29.98,North,9,10.0,17.0,87,0.00,,,0.00,PyWeather,2013-02-06 09:09:00,
2013-02-05 23:10:00,68.1,63.8,29.99,North,11,10.0,18.0,86,0.00,,,0.00,PyWeather,2013-02-06 09:10:00,
2013-02-05 23:17:00,68.4,64.4,29.98,NNE,13,8.0,18.0,87,0.00,,,0.00,PyWeather,2013-02-06 09:17:00,
2013-02-05 23:22:00,68.4,64.4,29.98,NNE,31,9.0,17.0,87,0.00,,,0.00,PyWeather,2013-02-06 09:22:00,
2013-02-05 23:27:00,68.3,64.3,29.98,North,5,11.0,17.0,87,0.00,,,0.00,PyWeather,2013-02-06 09:27:00,
2013-02-05 23:32:00,68.2,64.5,29.98,NNE,30,12.0,19.0,88,0.00,,,0.00,PyWeather,2013-02-06 09:32:00,
2013-02-05 23:37:00,68.2,64.5,29.98,NE,38,12.0,19.0,88,0.00,,,0.00,PyWeather,2013-02-06 09:37:00,
2013-02-05 23:38:00,67.1,63.4,29.98,NE,37,12.0,20.0,88,0.00,,,0.00,PyWeather,2013-02-06 09:38:00,
2013-02-05 23:39:00,67.1,63.4,29.98,NNE,25,12.0,20.0,88,0.00,,,0.00,PyWeather,2013-02-06 09:39:00,
2013-02-05 23:40:00,67.0,63.3,29.98,NE,47,12.0,20.0,88,0.00,,,0.00,PyWeather,2013-02-06 09:40:00,
2013-02-05 23:41:00,67.0,63.3,29.98,NE,54,10.0,20.0,88,0.00,,,0.00,PyWeather,2013-02-06 09:41:00,
2013-02-05 23:42:00,68.0,64.3,29.98,NE,50,12.0,-999.0,88,0.00,,,0.00,PyWeather,2013-02-06 09:42:00,
2013-02-05 23:43:00,67.0,63.3,29.98,NNE,33,9.0,20.0,88,0.00,,,0.00,PyWeather,2013-02-06 09:43:00,
2013-02-05 23:45:00,67.0,63.3,29.98,NNE,30,9.0,16.0,88,0.00,,,0.00,PyWeather,2013-02-06 09:45:00,
2013-02-05 23:46:00,67.0,63.3,29.98,NE,46,8.0,16.0,88,0.00,,,0.00,PyWeather,2013-02-06 09:46:00,
2013-02-05 23:47:00,67.6,63.9,29.98,NE,44,13.0,-999.0,88,0.00,,,0.00,PyWeather,2013-02-06 09:47:00,
2013-02-05 23:48:00,67.0,63.3,29.98,NE,40,8.0,16.0,88,0.00,,,0.00,PyWeather,2013-02-06 09:48:00,
2013-02-05 23:49:00,67.1,63.4,29.98,NE,40,8.0,16.0,88,0.00,,,0.00,PyWeather,2013-02-06 09:49:00,
2013-02-05 23:51:00,67.2,63.8,29.98,NNE,33,8.0,16.0,89,0.00,,,0.00,PyWeather,2013-02-06 09:51:00,
2013-02-05 23:52:00,67.2,63.5,29.98,NNE,32,7.0,16.0,88,0.00,,,0.00,PyWeather,2013-02-06 09:52:00,
2013-02-05 23:53:00,67.1,63.4,29.98,NE,39,12.0,20.0,88,0.00,,,0.00,PyWeather,2013-02-06 09:53:00,
2013-02-05 23:54:00,67.2,63.5,29.98,NNE,16,7.0,-999.0,88,0.00,,,0.00,PyWeather,2013-02-06 09:54:00,
2013-02-05 23:55:00,67.2,63.5,29.97,NNE,28,7.0,-999.0,88,0.00,,,0.00,PyWeather,2013-02-06 09:55:00,
2013-02-05 23:58:00,67.0,63.3,29.98,NNE,32,9.0,20.0,88,0.00,,,0.00,PyWeather,2013-02-06 09:58:00,
2013-02-05 23:59:00,67.3,63.6,29.97,NNE,17,8.0,-999.0,88,0.00,,,0.00,PyWeather,2013-02-06 09:59:00,